Home > Products > Valid Products > TAF

000
FTUS41 KCTP 231141
TAFMDT
TAF
KMDT 231141Z 2312/2412 33015G25KT P6SM BKN035 OVC050
     FM231400 32019G31KT P6SM BKN035
     FM231700 32019G31KT P6SM BKN040
     FM232300 32014KT P6SM BKN040=



000
FTUS41 KCTP 231141
TAFUNV
TAF
KUNV 231141Z 2312/2412 34010KT P6SM OVC020
     FM231300 34013G23KT P6SM BKN025
     FM231600 33015G25KT P6SM BKN040
     FM240000 32009KT P6SM FEW045=



000
FTUS41 KCTP 231141
TAFJST
TAF
KJST 231141Z 2312/2412 32013KT P6SM OVC008
     FM231330 32015G25KT P6SM BKN015
     FM231800 31014G21KT P6SM SCT035
     FM232300 31010KT P6SM FEW025=



000
FTUS41 KCTP 231141
TAFBFD
TAF
KBFD 231141Z 2312/2412 35011G21KT P6SM OVC009
     FM231300 34013G23KT P6SM BKN015
     FM231700 33014G24KT P6SM BKN040
     FM232300 32007KT P6SM FEW025
     FM240900 31003KT 4SM BR VCFG SCT003=



000
FTUS41 KCTP 231141
TAFIPT
TAF
KIPT 231141Z 2312/2412 30011KT P6SM BKN025
     FM231300 30015G25KT P6SM BKN030
     FM231700 30016G27KT P6SM BKN035
     FM232300 30009KT P6SM BKN035=



000
FTUS41 KCTP 231141
TAFAOO
TAF
KAOO 231141Z 2312/2412 33014KT P6SM OVC020
     FM231300 33014G24KT P6SM BKN025
     FM231600 33016G27KT P6SM BKN040
     FM240000 32009KT P6SM FEW045=



000
FTUS41 KCTP 230857 AAA
TAFMDT
TAF AMD
KMDT 230857Z 2309/2406 33015G25KT P6SM BKN025 OVC035
     FM231400 32019G31KT P6SM SCT030 BKN040
     FM231700 32019G31KT P6SM BKN040
     FM232300 32014KT P6SM BKN040=



000
FTUS41 KCTP 230855 AAA
TAFIPT
TAF AMD
KIPT 230855Z 2309/2406 30011KT P6SM SCT025 BKN060
     FM231000 30011KT P6SM BKN025
     FM231300 30015G25KT P6SM BKN025
     FM231900 30016G27KT P6SM BKN035
     FM232300 30009KT P6SM BKN035=



000
FTUS41 KCTP 230852 AAA
TAFUNV
TAF AMD
KUNV 230852Z 2309/2406 34010KT P6SM OVC015
     FM231300 34013G23KT P6SM BKN025
     FM231600 33015G25KT P6SM SCT040
     FM240000 32009KT P6SM FEW045=



000
FTUS41 KCTP 230851 AAA
TAFAOO
TAF AMD
KAOO 230851Z 2309/2406 33012KT P6SM OVC015
     FM231300 33014G24KT P6SM BKN025
     FM231600 33016G27KT P6SM SCT040
     FM240000 32009KT P6SM FEW045=



000
FTUS41 KCTP 230848 AAA
TAFJST
TAF AMD
KJST 230848Z 2309/2406 32013KT P6SM OVC006
     FM231400 32015G25KT P6SM OVC015
     FM231800 31014G21KT P6SM SCT035
     FM232300 31010KT P6SM FEW025=



000
FTUS41 KCTP 230845 AAB
TAFBFD
TAF AMD
KBFD 230845Z 2309/2406 35008KT P6SM OVC010
      TEMPO 2310/2312 OVC008
     FM231300 34013G23KT P6SM OVC015
     FM231700 33014G23KT P6SM SCT040
     FM232300 32007KT P6SM FEW025=



000
FTUS41 KCTP 230619 AAA
TAFBFD
TAF AMD
KBFD 230619Z 2306/2406 35008KT P6SM OVC006
     FM231300 34013G23KT P6SM OVC015
     FM231700 33014G23KT P6SM SCT040
     FM232300 32007KT P6SM FEW025=



000
FTUS41 KCTP 230537
TAFJST
TAF
KJST 230537Z 2306/2406 33013KT P6SM OVC006
     FM231400 32015G25KT P6SM OVC015
     FM231800 31014G21KT P6SM SCT035
     FM232300 31010KT P6SM FEW025=



000
FTUS41 KCTP 230537
TAFBFD
TAF
KBFD 230537Z 2306/2406 35008KT P6SM OVC004
     FM231300 34013G23KT P6SM OVC015
     FM231700 33014G23KT P6SM SCT040
     FM232300 32007KT P6SM FEW025=



000
FTUS41 KCTP 230537
TAFAOO
TAF
KAOO 230537Z 2306/2406 33012KT P6SM OVC015
     FM231500 33016G27KT P6SM SCT040
     FM240000 32009KT P6SM FEW045=



000
FTUS41 KCTP 230537
TAFUNV
TAF
KUNV 230537Z 2306/2406 33010KT P6SM OVC015
     FM231500 33015G25KT P6SM SCT040
     FM240000 32009KT P6SM FEW045=



000
FTUS41 KCTP 230537
TAFIPT
TAF
KIPT 230537Z 2306/2406 30011KT P6SM VCSH OVC020
     FM231000 30011KT P6SM OVC020
     FM231300 30015G25KT P6SM OVC025
     FM231900 30016G27KT P6SM BKN035
     FM232300 30009KT P6SM BKN035=



000
FTUS41 KCTP 230537
TAFMDT
TAF
KMDT 230537Z 2306/2406 33015G25KT P6SM VCSH BKN025 OVC035
     FM230900 32014KT P6SM BKN025 OVC060
     FM231300 32019G31KT P6SM BKN030
     FM231700 32019G31KT P6SM BKN040
     FM232300 32014KT P6SM BKN040=



000
FTUS41 KCTP 230239 AAA
TAFBFD
TAF AMD
KBFD 230239Z 2303/2324 36008KT P6SM OVC005
     FM231300 34010G15KT P6SM OVC015
     FM231500 34012G19KT P6SM OVC025
     FM231800 33014G20KT P6SM SKC=



000
FTUS41 KCTP 230239 AAB
TAFAOO
TAF AMD
KAOO 230239Z 2303/2324 35008KT P6SM OVC025
     FM230500 32012KT P6SM OVC015
     FM231600 33015G23KT P6SM OVC050=



000
FTUS41 KCTP 230239 AAA
TAFJST
TAF AMD
KJST 230239Z 2303/2324 32012G18KT P6SM OVC009
     FM231300 33012G20KT P6SM OVC020
     FM231800 31014G21KT P6SM SKC=



000
FTUS41 KCTP 230239 AAB
TAFIPT
TAF AMD
KIPT 230239Z 2303/2324 32010G15KT P6SM VCSH OVC022
     FM231500 32012G18KT P6SM BKN015 OVC025
     FM231900 30014G22KT P6SM OVC050=



000
FTUS41 KCTP 230239 AAB
TAFUNV
TAF AMD
KUNV 230239Z 2303/2324 36012G18KT P6SM BKN015 OVC025
     FM231300 33013G20KT P6SM OVC025
     FM231600 34014G21KT P6SM OVC050=



000
FTUS41 KCTP 230239 AAA
TAFMDT
TAF AMD
KMDT 230239Z 2303/2324 35010G19KT P6SM BKN025 OVC035
     FM231800 32024G32KT P6SM OVC050=



000
FTUS41 KCTP 230112 AAA
TAFUNV
TAF AMD
KUNV 230112Z 2301/2324 36012G18KT P6SM BKN015 OVC025
     FM231300 33013G20KT P6SM OVC025
     FM231600 34014G21KT P6SM OVC050=



000
FTUS41 KCTP 230112 AAA
TAFUNV
TAF AMD
KUNV 230112Z 2301/2324 36012G18KT P6SM BKN015 OVC025
     FM231300 33013G20KT P6SM OVC025
     FM231600 34014G21KT P6SM OVC050=



000
FTUS41 KCTP 230112 AAA
TAFAOO
TAF AMD
KAOO 230112Z 2301/2324 35012G18KT P6SM OVC025
     FM231600 33015G23KT P6SM OVC050=



000
FTUS41 KCTP 230112 AAA
TAFAOO
TAF AMD
KAOO 230112Z 2301/2324 35012G18KT P6SM OVC025
     FM231600 33015G23KT P6SM OVC050=



000
FTUS41 KCTP 230112 AAA
TAFIPT
TAF AMD
KIPT 230112Z 2301/2324 30009KT P6SM VCSH OVC015
     FM231500 32012G18KT P6SM BKN015 OVC025
     FM231900 30014G22KT P6SM OVC050=



000
FTUS41 KCTP 230112 AAA
TAFIPT
TAF AMD
KIPT 230112Z 2301/2324 30009KT P6SM VCSH OVC015
     FM231500 32012G18KT P6SM BKN015 OVC025
     FM231900 30014G22KT P6SM OVC050=



000
FTUS41 KCTP 222327
TAFAOO
TAF
KAOO 222327Z 2300/2324 35012G18KT P6SM BKN015 OVC025
     FM230500 33010KT P6SM OVC025
     FM231600 33015G23KT P6SM OVC050=



000
FTUS41 KCTP 222327
TAFMDT
TAF
KMDT 222327Z 2300/2324 35010G19KT P6SM BKN025 OVC035
     FM231800 32024G32KT P6SM OVC050=



000
FTUS41 KCTP 222327
TAFIPT
TAF
KIPT 222327Z 2300/2324 30009KT P6SM VCSH OVC025
     FM230300 30010KT P6SM VCSH OVC015
     FM231500 32012G18KT P6SM BKN015 OVC025
     FM231900 30014G22KT P6SM OVC050=



000
FTUS41 KCTP 222327
TAFJST
TAF
KJST 222327Z 2300/2324 32012G18KT P6SM OVC009
     FM231300 33012G20KT P6SM OVC020
     FM231800 31014G21KT P6SM SKC=



000
FTUS41 KCTP 222327
TAFUNV
TAF
KUNV 222327Z 2300/2324 36012G18KT P6SM BKN025 OVC035
     FM230200 32010KT P6SM BKN015 OVC025
     FM231300 33013G20KT P6SM OVC025
     FM231600 34014G21KT P6SM OVC050=



000
FTUS41 KCTP 222327
TAFBFD
TAF
KBFD 222327Z 2300/2324 36008KT P6SM OVC005
     FM231300 34010G15KT P6SM OVC015
     FM231500 34012G19KT P6SM OVC025
     FM231800 33014G20KT P6SM SKC=



000
FTUS41 KCTP 222133 AAB
TAFAOO
TAF AMD
KAOO 222133Z 2222/2318 35012G18KT P6SM BKN025 OVC035
     FM230500 33010KT P6SM OVC025=



000
FTUS41 KCTP 222133 AAA
TAFJST
TAF AMD
KJST 222133Z 2222/2318 32009KT P6SM OVC006
     FM231300 33012G20KT P6SM OVC020=



000
FTUS41 KCTP 222133 AAB
TAFBFD
TAF AMD
KBFD 222133Z 2222/2318 36008KT P6SM OVC005
     FM231300 34007KT P6SM OVC020
     FM231500 34012G19KT P6SM OVC025=



000
FTUS41 KCTP 222133 AAB
TAFUNV
TAF AMD
KUNV 222133Z 2222/2318 36012G18KT P6SM BKN025 OVC035
     FM230200 32010KT P6SM BKN015 OVC025
     FM231300 33013G20KT P6SM OVC025=



000
FTUS41 KCTP 222133 AAB
TAFMDT
TAF AMD
KMDT 222133Z 2222/2318 35010G19KT P6SM BKN025 OVC035=



000
FTUS41 KCTP 222133 AAA
TAFIPT
TAF AMD
KIPT 222133Z 2222/2318 30009KT P6SM OVC025
     FM230700 32010KT P6SM BKN015 OVC025
     FM231500 31013G20KT P6SM OVC025=



000
FTUS41 KCTP 222022 AAA
TAFUNV
TAF AMD
KUNV 222022Z 2220/2318 36012G18KT P6SM BKN025 OVC035
     FM230200 32010KT P6SM BKN015 OVC025=



000
FTUS41 KCTP 222022 AAA
TAFUNV
TAF AMD
KUNV 222022Z 2220/2318 36012G18KT P6SM BKN025 OVC035
     FM230200 32010KT P6SM BKN015 OVC025=



000
FTUS41 KCTP 222021 AAA
TAFAOO
TAF AMD
KAOO 222021Z 2220/2318 35012G18KT P6SM SCT024 OVC035
     FM222300 34012G18KT P6SM BKN025 OVC040
     FM230500 33010KT P6SM OVC025=



000
FTUS41 KCTP 222021 AAA
TAFAOO
TAF AMD
KAOO 222021Z 2220/2318 35012G18KT P6SM SCT024 OVC035
     FM222300 34012G18KT P6SM BKN025 OVC040
     FM230500 33010KT P6SM OVC025=



000
FTUS41 KCTP 222017 AAA
TAFBFD
TAF AMD
KBFD 222017Z 2220/2318 36008KT P6SM OVC005
     FM231300 34007KT P6SM VCSH OVC020
     FM231500 34012G19KT P6SM OVC025=



000
FTUS41 KCTP 222017 AAA
TAFBFD
TAF AMD
KBFD 222017Z 2220/2318 36008KT P6SM OVC005
     FM231300 34007KT P6SM VCSH OVC020
     FM231500 34012G19KT P6SM OVC025=



000
FTUS41 KCTP 221812 AAA
TAFMDT
TAF AMD
KMDT 221812Z 2218/2318 35010G19KT P6SM BKN025 OVC035
     FM222100 33014G22KT P6SM -RA SCT025 OVC050
     FM230600 32012KT P6SM OVC040=



000
FTUS41 KCTP 221743
TAFBFD
TAF
KBFD 221743Z 2218/2318 01009KT 2SM BR OVC002
      TEMPO 2218/2220 1SM BR OVC005
     FM222000 36010G15KT 4SM BR OVC005
     FM222300 34012KT P6SM OVC012
     FM230600 34007KT P6SM VCSH OVC020
     FM231500 34012G19KT P6SM OVC025=



000
FTUS41 KCTP 221743
TAFMDT
TAF
KMDT 221743Z 2218/2318 34009KT P6SM SCT020 OVC025
     FM222100 33014G22KT P6SM -RA SCT025 OVC050
     FM230600 32012KT P6SM OVC040=



000
FTUS41 KCTP 221743
TAFJST
TAF
KJST 221743Z 2218/2318 32009KT P6SM OVC005
     FM222100 33012G22KT P6SM BKN012 OVC025
     FM230300 33010KT P6SM OVC020
     FM230700 32009KT P6SM VCSH OVC010=



000
FTUS41 KCTP 221743
TAFAOO
TAF
KAOO 221743Z 2218/2318 35007KT P6SM OVC015
     FM222200 34012G22KT P6SM SCT025 BKN040 OVC090
     FM230500 33010KT P6SM OVC025=



000
FTUS41 KCTP 221743
TAFIPT
TAF
KIPT 221743Z 2218/2318 34008G18KT P6SM OVC025
     FM222100 32011G18KT P6SM VCSH OVC035
     FM230600 32010KT 5SM -SHRA BKN025=



000
FTUS41 KCTP 221743
TAFUNV
TAF
KUNV 221743Z 2218/2318 02009KT P6SM VCSH OVC035
     FM222200 33012G18KT P6SM SCT025 OVC035
     FM230500 32010KT P6SM BKN025=



000
FTUS41 KCTP 221743
TAFBFD
TAF
KBFD 221743Z 2218/2318 01009KT 2SM BR OVC002
      TEMPO 2218/2220 1SM BR OVC005
     FM222000 36010G15KT 4SM BR OVC005
     FM222300 34012KT P6SM OVC012
     FM230600 34007KT P6SM VCSH OVC020
     FM231500 34012G19KT P6SM OVC025=



000
FTUS41 KCTP 221743
TAFIPT
TAF
KIPT 221743Z 2218/2318 34008G18KT P6SM OVC025
     FM222100 32011G18KT P6SM VCSH OVC035
     FM230600 32010KT 5SM -SHRA BKN025=



000
FTUS41 KCTP 221743
TAFMDT
TAF
KMDT 221743Z 2218/2318 34009KT P6SM SCT020 OVC025
     FM222100 33014G22KT P6SM -RA SCT025 OVC050
     FM230600 32012KT P6SM OVC040=



000
FTUS41 KCTP 221743
TAFAOO
TAF
KAOO 221743Z 2218/2318 35007KT P6SM OVC015
     FM222200 34012G22KT P6SM SCT025 BKN040 OVC090
     FM230500 33010KT P6SM OVC025=



000
FTUS41 KCTP 221743
TAFUNV
TAF
KUNV 221743Z 2218/2318 02009KT P6SM VCSH OVC035
     FM222200 33012G18KT P6SM SCT025 OVC035
     FM230500 32010KT P6SM BKN025=



000
FTUS41 KCTP 221743
TAFJST
TAF
KJST 221743Z 2218/2318 32009KT P6SM OVC005
     FM222100 33012G22KT P6SM BKN012 OVC025
     FM230300 33010KT P6SM OVC020
     FM230700 32009KT P6SM VCSH OVC010=



000
FTUS41 KCTP 221600 AAA
TAFUNV
TAF AMD
KUNV 221600Z 2216/2312 02011KT P6SM VCSH OVC025
     FM221800 34010G16KT P6SM VCSH SCT020 BKN025 OVC035
     FM222000 33012G18KT P6SM SCT025 OVC035
     FM230500 32010KT P6SM BKN025=



000
FTUS41 KCTP 221600 AAA
TAFBFD
TAF AMD
KBFD 221600Z 2216/2312 35009KT 1SM BR OVC002
      TEMPO 2216/2218 3/4SM BR OVC003
     FM221800 36010G15KT 4SM BR OVC009
     FM222100 34012KT P6SM OVC012
     FM230600 34007KT P6SM VCSH OVC020=



000
FTUS41 KCTP 221600 AAA
TAFMDT
TAF AMD
KMDT 221600Z 2216/2312 35009KT P6SM -RA SCT020 OVC025
      TEMPO 2216/2218 SCT025 OVC035
     FM221800 33015G25KT P6SM VCSH BKN035
     FM222000 33014G22KT P6SM SCT025 OVC050
     FM230600 32012KT P6SM OVC040=



000
FTUS41 KCTP 221600 AAA
TAFAOO
TAF AMD
KAOO 221600Z 2216/2312 35007KT P6SM OVC015
     FM222000 34012G22KT P6SM SCT025 BKN040 OVC090
     FM230500 33010KT P6SM OVC025=



000
FTUS41 KCTP 221600 AAA
TAFBFD
TAF AMD
KBFD 221600Z 2216/2312 35009KT 1SM BR OVC002
      TEMPO 2216/2218 3/4SM BR OVC003
     FM221800 36010G15KT 4SM BR OVC009
     FM222100 34012KT P6SM OVC012
     FM230600 34007KT P6SM VCSH OVC020=



000
FTUS41 KCTP 221600 AAA
TAFMDT
TAF AMD
KMDT 221600Z 2216/2312 35009KT P6SM -RA SCT020 OVC025
      TEMPO 2216/2218 SCT025 OVC035
     FM221800 33015G25KT P6SM VCSH BKN035
     FM222000 33014G22KT P6SM SCT025 OVC050
     FM230600 32012KT P6SM OVC040=



000
FTUS41 KCTP 221600 AAA
TAFIPT
TAF AMD
KIPT 221600Z 2216/2312 34010G18KT P6SM VCSH OVC015
     FM221900 32011G18KT P6SM VCSH OVC035
     FM230600 32010KT 5SM -SHRA BKN025=



000
FTUS41 KCTP 221600 AAA
TAFJST
TAF AMD
KJST 221600Z 2216/2312 34012KT 6SM BR OVC004
     FM221800 33010G17KT 6SM BR OVC009
     FM222100 33012G22KT P6SM BKN012 OVC025
     FM230300 33010KT P6SM OVC020
     FM230700 32009KT P6SM VCSH OVC010=



000
FTUS41 KCTP 221600 AAA
TAFUNV
TAF AMD
KUNV 221600Z 2216/2312 02011KT P6SM VCSH OVC025
     FM221800 34010G16KT P6SM VCSH SCT020 BKN025 OVC035
     FM222000 33012G18KT P6SM SCT025 OVC035
     FM230500 32010KT P6SM BKN025=



000
FTUS41 KCTP 221600 AAA
TAFIPT
TAF AMD
KIPT 221600Z 2216/2312 34010G18KT P6SM VCSH OVC015
     FM221900 32011G18KT P6SM VCSH OVC035
     FM230600 32010KT 5SM -SHRA BKN025=



000
FTUS41 KCTP 221600 AAA
TAFAOO
TAF AMD
KAOO 221600Z 2216/2312 35007KT P6SM OVC015
     FM222000 34012G22KT P6SM SCT025 BKN040 OVC090
     FM230500 33010KT P6SM OVC025=



000
FTUS41 KCTP 221600 AAA
TAFJST
TAF AMD
KJST 221600Z 2216/2312 34012KT 6SM BR OVC004
     FM221800 33010G17KT 6SM BR OVC009
     FM222100 33012G22KT P6SM BKN012 OVC025
     FM230300 33010KT P6SM OVC020
     FM230700 32009KT P6SM VCSH OVC010=



000
FTUS41 KCTP 221132 CCA
TAFUNV
TAF COR
KUNV 221132Z 2212/2312 36008KT 6SM BR SCT018 BKN035 OVC050
      TEMPO 2212/2214 BKN018 OVC035
     FM221700 34010G16KT P6SM VCSH SCT020 BKN035 OVC090
     FM222000 33012G18KT P6SM SCT025 OVC035
     FM230500 32010KT P6SM BKN025=



000
FTUS41 KCTP 221120
TAFAOO
TAF
KAOO 221120Z 2212/2312 36007KT P6SM BKN025 OVC050
     FM221500 34012G22KT P6SM SCT025 BKN040 OVC090
     FM230500 33010KT P6SM OVC025=



000
FTUS41 KCTP 221120
TAFUNV
TAF
KUNV 221120Z 2212/2312 36008KT 6SM BR SCT015 OVC050
     FM221700 34010G16KT P6SM VCSH SCT020 BKN035 OVC090
     FM222000 33012G18KT P6SM SCT025 OVC035
     FM230500 32010KT P6SM BKN025=



000
FTUS41 KCTP 221120
TAFJST
TAF
KJST 221120Z 2212/2312 35008KT 6SM BR OVC007
     FM221500 33010G17KT 6SM BR OVC009
     FM222000 33012G22KT P6SM BKN012 OVC025
     FM230300 33010KT P6SM OVC020
     FM230700 32009KT P6SM VCSH OVC010=



000
FTUS41 KCTP 221120
TAFBFD
TAF
KBFD 221120Z 2212/2312 02006KT 6SM -DZ BR BKN003 OVC007
      TEMPO 2212/2214 3SM -DZ BR OVC003
     FM221800 36010G15KT P6SM VCSH OVC009
     FM222100 34012KT P6SM OVC012
     FM230600 34007KT P6SM VCSH OVC020=



000
FTUS41 KCTP 221120
TAFMDT
TAF
KMDT 221120Z 2212/2312 35005KT P6SM SCT030 OVC040
     FM221400 34011G20KT 6SM -SHRA BKN030 OVC040
     FM221700 33015G25KT P6SM VCSH BKN035
     FM221900 33014G22KT P6SM SCT025 OVC050
     FM230600 32012KT P6SM OVC040=



000
FTUS41 KCTP 221120
TAFIPT
TAF
KIPT 221120Z 2212/2312 34007KT P6SM VCSH OVC020
     FM221300 34009G15KT 4SM -SHRA BKN017 OVC025
     FM221700 32011G18KT P6SM VCSH OVC030
     FM230600 32010KT 5SM -SHRA BKN025=



000
FTUS41 KCTP 221005 AAC
TAFJST
TAF AMD
KJST 221005Z 2210/2306 35008KT 6SM BR OVC005
     FM221300 32010KT 5SM BR VCSH OVC009
     FM221700 33010G16KT 6SM BR OVC012
     FM222000 33013G20KT P6SM OVC020=



000
FTUS41 KCTP 221005 AAC
TAFJST
TAF AMD
KJST 221005Z 2210/2306 35008KT 6SM BR OVC005
     FM221300 32010KT 5SM BR VCSH OVC009
     FM221700 33010G16KT 6SM BR OVC012
     FM222000 33013G20KT P6SM OVC020=



000
FTUS41 KCTP 221003 AAC
TAFAOO
TAF AMD
KAOO 221003Z 2210/2306 36007KT P6SM SCT025 OVC050
     FM221700 34010G16KT P6SM VCSH SCT025 OVC035=



000
FTUS41 KCTP 221003 AAC
TAFAOO
TAF AMD
KAOO 221003Z 2210/2306 36007KT P6SM SCT025 OVC050
     FM221700 34010G16KT P6SM VCSH SCT025 OVC035=



000
FTUS41 KCTP 221002 AAB
TAFMDT
TAF AMD
KMDT 221002Z 2210/2306 31005KT P6SM SCT025 OVC050
     FM221300 32008KT P6SM -SHRA OVC025
     FM221600 33013G20KT 6SM -SHRA BR BKN035
     FM222100 33015KT P6SM VCSH SCT025 OVC050=



000
FTUS41 KCTP 221002 AAB
TAFMDT
TAF AMD
KMDT 221002Z 2210/2306 31005KT P6SM SCT025 OVC050
     FM221300 32008KT P6SM -SHRA OVC025
     FM221600 33013G20KT 6SM -SHRA BR BKN035
     FM222100 33015KT P6SM VCSH SCT025 OVC050=



000
FTUS41 KCTP 220926 AAC
TAFUNV
TAF AMD
KUNV 220926Z 2209/2306 36008KT 6SM BR SCT015 OVC050
     FM221700 34010G16KT P6SM VCSH OVC020
     FM222000 33012G18KT P6SM SCT025 OVC035=



000
FTUS41 KCTP 220925 AAB
TAFAOO
TAF AMD
KAOO 220925Z 2209/2306 01007KT P6SM BKN025 OVC040
     FM221700 34010G16KT P6SM VCSH SCT025 OVC035
     FM222100 33012G20KT P6SM SCT025 OVC035=



000
FTUS41 KCTP 220924 AAC
TAFIPT
TAF AMD
KIPT 220924Z 2209/2306 35010KT 6SM -SHRA OVC020
     FM221200 33009KT 6SM -SHRA BR OVC017
     FM222000 32011G18KT 6SM BR VCSH OVC020=



000
FTUS41 KCTP 220819 AAB
TAFJST
TAF AMD
KJST 220819Z 2208/2306 35008KT 2SM BR OVC004
      TEMPO 2208/2210 6SM -DZ BR BKN007
     FM221000 34010KT 2SM -DZ BR OVC003
     FM221400 32010KT 3SM BR OVC007
     FM221700 33010G16KT 5SM BR OVC012
     FM222000 33013G20KT P6SM OVC020=



000
FTUS41 KCTP 220817 AAA
TAFMDT
TAF AMD
KMDT 220817Z 2208/2306 31005KT 6SM -SHRA BR BKN025 OVC050
     FM221000 32008KT 3SM -SHRA BR OVC017
     FM221600 33013G20KT 6SM -SHRA BR OVC030
     FM222100 33015KT P6SM VCSH SCT025 OVC050=



000
FTUS41 KCTP 220816 AAA
TAFBFD
TAF AMD
KBFD 220816Z 2208/2306 02006KT 6SM -DZ BR BKN003 OVC007
     FM221800 36010G15KT P6SM VCSH OVC009
     FM222100 34012KT P6SM OVC012=



000
FTUS41 KCTP 220815 AAB
TAFIPT
TAF AMD
KIPT 220815Z 2208/2306 33006KT 6SM -SHRA OVC025
     FM220900 36006KT 5SM -SHRA BR OVC017
     FM221200 34007KT 2SM -SHRA BR OVC010
     FM221500 33008KT 6SM -SHRA BR OVC017
     FM222000 32010KT 6SM BR VCSH OVC020=



000
FTUS41 KCTP 220813 AAB
TAFUNV
TAF AMD
KUNV 220813Z 2208/2306 02005KT P6SM OVC070
     FM220930 36005KT 6SM -SHRA BR SCT015 OVC030
     FM221700 34010G16KT P6SM VCSH OVC020
     FM222000 33012G18KT P6SM SCT025 OVC035=



000
FTUS41 KCTP 220811 AAA
TAFAOO
TAF AMD
KAOO 220811Z 2208/2306 01007KT P6SM SCT030 OVC090
     FM220900 35009KT 6SM BR OVC050
     FM221700 34010G16KT P6SM VCSH OVC020
     FM222000 33012G20KT P6SM SCT025 OVC035=



000
FTUS41 KCTP 220724 AAA
TAFJST
TAF AMD
KJST 220724Z 2207/2306 33008KT 2SM BR OVC004
      TEMPO 2207/2209 4SM -DZ BR BKN007
     FM220900 32010KT 1SM -DZ BR OVC002
     FM221400 32010KT 3SM BR OVC007
     FM221700 33010G16KT 5SM BR OVC012
     FM222000 33013G20KT P6SM OVC020=



000
FTUS41 KCTP 220647 AAA
TAFIPT
TAF AMD
KIPT 220647Z 2207/2306 28006KT 6SM -SHRA BKN025 OVC040
     FM220900 30006KT 5SM -SHRA BR OVC015
     FM221200 33007KT 2SM -SHRA BR OVC010
     FM221500 33008KT 6SM -SHRA BR OVC017
     FM222000 32010KT 6SM BR VCSH OVC020=



000
FTUS41 KCTP 220625 AAA
TAFUNV
TAF AMD
KUNV 220625Z 2206/2306 03005KT P6SM VCSH SCT019 OVC040
     FM220900 36007KT 6SM BR SCT015 OVC025
     FM221700 34010G16KT P6SM VCSH OVC020
     FM222000 33012G18KT P6SM SCT025 OVC035=



000
FTUS41 KCTP 220545 CCA
TAFBFD
TAF COR
KBFD 220545Z 2206/2306 33006KT 6SM BR BKN003 OVC007
     FM220700 36007KT 4SM BR VCSH OVC003
     FM221800 34010G15KT P6SM VCSH OVC009
     FM222100 34012KT P6SM OVC012=



000
FTUS41 KCTP 220545 CCA
TAFBFD
TAF COR
KBFD 220545Z 2206/2306 33006KT 6SM BR BKN003 OVC007
     FM220700 36007KT 4SM BR VCSH OVC003
     FM221800 34010G15KT P6SM VCSH OVC009
     FM222100 34012KT P6SM OVC012=



000
FTUS41 KCTP 220531 CCA
TAFJST
TAF COR
KJST 220531Z 2206/2306 33008KT 3/4SM -RA BR OVC002
      TEMPO 2206/2208 1/4SM -DZ FG
     FM220900 32010KT 1SM -DZ BR OVC001
     FM221400 32010KT 3SM BR OVC007
     FM221700 33010G16KT 5SM BR OVC012
     FM222000 33013G20KT P6SM OVC020=



000
FTUS41 KCTP 220531 CCA
TAFJST
TAF COR
KJST 220531Z 2206/2306 33008KT 3/4SM -RA BR OVC002
      TEMPO 2206/2208 1/4SM -DZ FG
     FM220900 32010KT 1SM -DZ BR OVC001
     FM221400 32010KT 3SM BR OVC007
     FM221700 33010G16KT 5SM BR OVC012
     FM222000 33013G20KT P6SM OVC020=



000
FTUS41 KCTP 220526
TAFJST
TAF
KJST 220526Z 2206/2306 33008KT 2SM -RA BR OVC002
      TEMPO 2206/2208 3/4SM -DZ BR
     FM220900 32010KT 1SM -DZ BR OVC001
     FM221400 32010KT 3SM BR OVC007
     FM221700 33010G16KT 5SM BR OVC012
     FM222000 33013G20KT P6SM OVC020=



000
FTUS41 KCTP 220526
TAFBFD
TAF
KBFD 220526Z 2206/2306 33006KT P6SM BKN006 OVC015
     FM220700 36007KT 4SM BR VCSH OVC006
     FM221800 34010G15KT P6SM VCSH OVC009
     FM222100 34012KT P6SM OVC012=



000
FTUS41 KCTP 220526
TAFUNV
TAF
KUNV 220526Z 2206/2306 03005KT P6SM VCSH OVC019
     FM220900 36007KT 6SM BR OVC012
     FM221700 34010G16KT P6SM VCSH OVC020
     FM222000 33012G18KT P6SM SCT025 OVC035=



000
FTUS41 KCTP 220526
TAFMDT
TAF
KMDT 220526Z 2206/2306 30007KT P6SM VCSH SCT040 OVC100
     FM220700 31005KT 6SM -SHRA BR BKN025 OVC050
     FM220900 32008KT 3SM -SHRA BR OVC017
     FM221600 33013G20KT 6SM -SHRA BR OVC030
     FM222100 33015KT P6SM VCSH SCT025 OVC050=



000
FTUS41 KCTP 220526
TAFAOO
TAF
KAOO 220526Z 2206/2306 34007KT P6SM VCSH OVC014
     FM220900 34009KT 6SM BR OVC012
     FM221700 34010G16KT P6SM VCSH OVC020
     FM222000 33012G18KT P6SM SCT025 OVC035=



000
FTUS41 KCTP 220526
TAFIPT
TAF
KIPT 220526Z 2206/2306 28006KT 6SM -SHRA SCT025 OVC040
     FM220900 30006KT 5SM -SHRA BR OVC015
     FM221200 33007KT 2SM -SHRA BR OVC010
     FM221500 33008KT 6SM -SHRA BR OVC017
     FM222000 32010KT 6SM BR VCSH OVC020=



000
FTUS41 KCTP 220526
TAFIPT
TAF
KIPT 220526Z 2206/2306 28006KT 6SM -SHRA SCT025 OVC040
     FM220900 30006KT 5SM -SHRA BR OVC015
     FM221200 33007KT 2SM -SHRA BR OVC010
     FM221500 33008KT 6SM -SHRA BR OVC017
     FM222000 32010KT 6SM BR VCSH OVC020=



000
FTUS41 KCTP 220526
TAFMDT
TAF
KMDT 220526Z 2206/2306 30007KT P6SM VCSH SCT040 OVC100
     FM220700 31005KT 6SM -SHRA BR BKN025 OVC050
     FM220900 32008KT 3SM -SHRA BR OVC017
     FM221600 33013G20KT 6SM -SHRA BR OVC030
     FM222100 33015KT P6SM VCSH SCT025 OVC050=



000
FTUS41 KCTP 220526
TAFAOO
TAF
KAOO 220526Z 2206/2306 34007KT P6SM VCSH OVC014
     FM220900 34009KT 6SM BR OVC012
     FM221700 34010G16KT P6SM VCSH OVC020
     FM222000 33012G18KT P6SM SCT025 OVC035=



000
FTUS41 KCTP 220526
TAFJST
TAF
KJST 220526Z 2206/2306 33008KT 2SM -RA BR OVC002
      TEMPO 2206/2208 3/4SM -DZ BR
     FM220900 32010KT 1SM -DZ BR OVC001
     FM221400 32010KT 3SM BR OVC007
     FM221700 33010G16KT 5SM BR OVC012
     FM222000 33013G20KT P6SM OVC020=



000
FTUS41 KCTP 220526
TAFUNV
TAF
KUNV 220526Z 2206/2306 03005KT P6SM VCSH OVC019
     FM220900 36007KT 6SM BR OVC012
     FM221700 34010G16KT P6SM VCSH OVC020
     FM222000 33012G18KT P6SM SCT025 OVC035=



000
FTUS41 KCTP 220526
TAFBFD
TAF
KBFD 220526Z 2206/2306 33006KT P6SM BKN006 OVC015
     FM220700 36007KT 4SM BR VCSH OVC006
     FM221800 34010G15KT P6SM VCSH OVC009
     FM222100 34012KT P6SM OVC012=



000
FTUS41 KCTP 220420 AAB
TAFBFD
TAF AMD
KBFD 220420Z 2204/2224 33006KT P6SM BKN006 OVC015
     FM220700 36007KT 4SM BR VCSH OVC006
     FM221800 34010G15KT P6SM VCSH OVC025
     FM222100 34012KT P6SM OVC050=



000
FTUS41 KCTP 220420 AAB
TAFBFD
TAF AMD
KBFD 220420Z 2204/2224 33006KT P6SM BKN006 OVC015
     FM220700 36007KT 4SM BR VCSH OVC006
     FM221800 34010G15KT P6SM VCSH OVC025
     FM222100 34012KT P6SM OVC050=



000
FTUS41 KCTP 220419 AAB
TAFJST
TAF AMD
KJST 220419Z 2204/2224 32008KT 2SM -SHRA OVC003
     FM220600 33007KT 4SM -SHRA BR OVC003
     FM221600 33010G15KT P6SM VCSH OVC015=



000
FTUS41 KCTP 220418 AAB
TAFUNV
TAF AMD
KUNV 220418Z 2204/2224 VRB04KT P6SM -SHRA SCT019 OVC040
     FM220600 35003KT 4SM -SHRA BR OVC025
     FM221700 36008KT P6SM OVC025
     FM221900 35010KT P6SM OVC050=



000
FTUS41 KCTP 220417 AAB
TAFIPT
TAF AMD
KIPT 220417Z 2204/2224 00000KT 6SM -SHRA BKN025 OVC035
     FM220700 29002KT 4SM -SHRA BR OVC020
     FM220900 30008KT 2SM -SHRA BR OVC005
     FM221700 32010KT P6SM OVC025
     FM221900 32010G15KT P6SM OVC050=



000
FTUS41 KCTP 220222 AAA
TAFMDT
TAF AMD
KMDT 220222Z 2202/2224 30007KT P6SM VCSH SCT040 OVC100
     FM220500 35005KT 4SM -SHRA BR BKN025 OVC050
     FM222100 33010G15KT P6SM -SHRA SCT025 OVC050=



000
FTUS41 KCTP 220222 AAA
TAFJST
TAF AMD
KJST 220222Z 2202/2224 30008KT P6SM -SHRA BKN004 OVC012
     FM220600 34007KT 4SM -SHRA BR BKN004 OVC009
     FM221600 33010G15KT P6SM VCSH OVC015=



000
FTUS41 KCTP 220222 AAA
TAFUNV
TAF AMD
KUNV 220222Z 2202/2224 VRB04KT P6SM -SHRA SCT025 OVC040
      TEMPO 2202/2204 3SM -SHRA BKN020 OVC035
     FM220400 35003KT 4SM -SHRA BR OVC025
     FM221700 36008KT P6SM OVC025
     FM221900 35010KT P6SM OVC050=



000
FTUS41 KCTP 220222 AAA
TAFIPT
TAF AMD
KIPT 220222Z 2202/2224 00000KT P6SM VCSH SCT025 OVC035
     FM220700 29002KT 4SM -SHRA BR OVC025
     FM220900 30008KT 2SM -SHRA BR OVC005
     FM221700 32010KT P6SM OVC025
     FM221900 32010G15KT P6SM OVC050=



000
FTUS41 KCTP 220222 AAA
TAFBFD
TAF AMD
KBFD 220222Z 2202/2224 33006KT P6SM VCSH BKN009 OVC015
     FM220700 36007KT 4SM BR OVC007
     FM221800 34010G15KT P6SM VCSH OVC025
     FM222100 34012KT P6SM OVC050=



000
FTUS41 KCTP 220222 AAA
TAFAOO
TAF AMD
KAOO 220222Z 2202/2224 34005KT P6SM -SHRA BKN012 OVC025
     FM220500 34008KT 3SM -SHRA BR OVC012
     FM221700 34010KT P6SM VCSH OVC025
     FM221900 34012G19KT P6SM OVC050=



000
FTUS41 KCTP 220222 AAA
TAFJST
TAF AMD
KJST 220222Z 2202/2224 30008KT P6SM -SHRA BKN004 OVC012
     FM220600 34007KT 4SM -SHRA BR BKN004 OVC009
     FM221600 33010G15KT P6SM VCSH OVC015=



000
FTUS41 KCTP 220222 AAA
TAFBFD
TAF AMD
KBFD 220222Z 2202/2224 33006KT P6SM VCSH BKN009 OVC015
     FM220700 36007KT 4SM BR OVC007
     FM221800 34010G15KT P6SM VCSH OVC025
     FM222100 34012KT P6SM OVC050=



000
FTUS41 KCTP 220222 AAA
TAFMDT
TAF AMD
KMDT 220222Z 2202/2224 30007KT P6SM VCSH SCT040 OVC100
     FM220500 35005KT 4SM -SHRA BR BKN025 OVC050
     FM222100 33010G15KT P6SM -SHRA SCT025 OVC050=



000
FTUS41 KCTP 220222 AAA
TAFUNV
TAF AMD
KUNV 220222Z 2202/2224 VRB04KT P6SM -SHRA SCT025 OVC040
      TEMPO 2202/2204 3SM -SHRA BKN020 OVC035
     FM220400 35003KT 4SM -SHRA BR OVC025
     FM221700 36008KT P6SM OVC025
     FM221900 35010KT P6SM OVC050=



000
FTUS41 KCTP 220222 AAA
TAFIPT
TAF AMD
KIPT 220222Z 2202/2224 00000KT P6SM VCSH SCT025 OVC035
     FM220700 29002KT 4SM -SHRA BR OVC025
     FM220900 30008KT 2SM -SHRA BR OVC005
     FM221700 32010KT P6SM OVC025
     FM221900 32010G15KT P6SM OVC050=



000
FTUS41 KCTP 220222 AAA
TAFAOO
TAF AMD
KAOO 220222Z 2202/2224 34005KT P6SM -SHRA BKN012 OVC025
     FM220500 34008KT 3SM -SHRA BR OVC012
     FM221700 34010KT P6SM VCSH OVC025
     FM221900 34012G19KT P6SM OVC050=



000
FTUS41 KCTP 220030 CCA
TAFJST
TAF COR
KJST 220030Z 2200/2224 30008KT P6SM VCSH SCT022 OVC035
      TEMPO 2200/2204 3SM -SHRA BKN008 OVC035
     FM220400 34007KT 4SM -SHRA BR BKN004 OVC009
     FM221600 33010KT P6SM VCSH OVC025=



000
FTUS41 KCTP 212327
TAFBFD
TAF
KBFD 212327Z 2200/2224 33006KT P6SM -SHRA BKN015 OVC035
     FM220200 34006KT 2SM -SHRA BR BKN004 OVC009
     FM221800 34013KT P6SM VCSH OVC025
     FM222100 34012KT P6SM OVC050=



000
FTUS41 KCTP 212327
TAFIPT
TAF
KIPT 212327Z 2200/2224 00000KT P6SM VCSH SCT025 OVC035
     FM220400 29002KT 4SM -SHRA BR OVC025
     FM220800 34008KT 2SM -SHRA BR OVC005
     FM221700 32010KT P6SM OVC025
     FM221900 32010G15KT P6SM OVC050=



000
FTUS41 KCTP 212327
TAFUNV
TAF
KUNV 212327Z 2200/2224 VRB04KT P6SM -SHRA SCT025 OVC040
      TEMPO 2200/2204 3SM -SHRA BKN020 OVC035
     FM220400 35003KT 4SM -SHRA BR OVC025
     FM220800 34008KT 2SM -SHRA BR OVC005
     FM221700 36008KT P6SM OVC025
     FM221900 35010KT P6SM OVC050=



000
FTUS41 KCTP 212327
TAFMDT
TAF
KMDT 212327Z 2200/2224 30007KT P6SM VCSH SCT040 OVC100
     FM220500 35005KT 4SM -SHRA BR BKN025 OVC050
     FM222100 33010G15KT P6SM -SHRA BKN025 OVC050=



000
FTUS41 KCTP 212327
TAFAOO
TAF
KAOO 212327Z 2200/2224 30006KT P6SM -SHRA BKN040
      TEMPO 2200/2204 3SM -SHRA BKN020 OVC035
     FM220400 34005KT 4SM -SHRA BR OVC025
     FM220700 34008KT 3SM -SHRA BR OVC007
     FM221700 34010KT P6SM VCSH OVC025
     FM221900 34012G19KT P6SM OVC050=



000
FTUS41 KCTP 212327
TAFJST
TAF
KJST 212327Z 2200/2224 30008KT P6SM VCSH SCT022 OVC035
      TEMPO 2200/2204 3SM -SHRA BKN020 OVC035
     FM220400 34007KT 4SM -SHRA BR BKN004 OVC009
     FM221600 33010KT P6SM VCSH OVC025=



000
FTUS41 KCTP 212327
TAFBFD
TAF
KBFD 212327Z 2200/2224 33006KT P6SM -SHRA BKN015 OVC035
     FM220200 34006KT 2SM -SHRA BR BKN004 OVC009
     FM221800 34013KT P6SM VCSH OVC025
     FM222100 34012KT P6SM OVC050=



000
FTUS41 KCTP 212327
TAFIPT
TAF
KIPT 212327Z 2200/2224 00000KT P6SM VCSH SCT025 OVC035
     FM220400 29002KT 4SM -SHRA BR OVC025
     FM220800 34008KT 2SM -SHRA BR OVC005
     FM221700 32010KT P6SM OVC025
     FM221900 32010G15KT P6SM OVC050=



000
FTUS41 KCTP 212327
TAFJST
TAF
KJST 212327Z 2200/2224 30008KT P6SM VCSH SCT022 OVC035
      TEMPO 2200/2204 3SM -SHRA BKN020 OVC035
     FM220400 34007KT 4SM -SHRA BR BKN004 OVC009
     FM221600 33010KT P6SM VCSH OVC025=



000
FTUS41 KCTP 212327
TAFUNV
TAF
KUNV 212327Z 2200/2224 VRB04KT P6SM -SHRA SCT025 OVC040
      TEMPO 2200/2204 3SM -SHRA BKN020 OVC035
     FM220400 35003KT 4SM -SHRA BR OVC025
     FM220800 34008KT 2SM -SHRA BR OVC005
     FM221700 36008KT P6SM OVC025
     FM221900 35010KT P6SM OVC050=



000
FTUS41 KCTP 212327
TAFMDT
TAF
KMDT 212327Z 2200/2224 30007KT P6SM VCSH SCT040 OVC100
     FM220500 35005KT 4SM -SHRA BR BKN025 OVC050
     FM222100 33010G15KT P6SM -SHRA BKN025 OVC050=



000
FTUS41 KCTP 212327
TAFAOO
TAF
KAOO 212327Z 2200/2224 30006KT P6SM -SHRA BKN040
      TEMPO 2200/2204 3SM -SHRA BKN020 OVC035
     FM220400 34005KT 4SM -SHRA BR OVC025
     FM220700 34008KT 3SM -SHRA BR OVC007
     FM221700 34010KT P6SM VCSH OVC025
     FM221900 34012G19KT P6SM OVC050=



000
FTUS41 KCTP 212142 AAC
TAFBFD
TAF AMD
KBFD 212142Z 2122/2218 33006KT P6SM -SHRA BKN015 OVC035
     FM212300 34007KT 4SM -SHRA BR OVC012
     FM220500 34010KT 2SM -SHRA BR BKN004 OVC009
     FM221000 35010KT 4SM -DZ BR OVC004=



000
FTUS41 KCTP 212142 AAB
TAFIPT
TAF AMD
KIPT 212142Z 2122/2218 00000KT P6SM VCSH SCT025 OVC035
     FM220100 33007KT 5SM -SHRA BR OVC010
     FM220600 34008KT 2SM -DZ BR OVC005=



000
FTUS41 KCTP 212142 AAB
TAFUNV
TAF AMD
KUNV 212142Z 2122/2218 VRB04KT 4SM -SHRA VCTS SCT025 OVC040CB
      TEMPO 2122/2124 3SM -SHRA OVC012
     FM220100 33007KT 5SM -SHRA BR OVC010
     FM220600 34008KT 2SM -DZ BR OVC005=



000
FTUS41 KCTP 212142 AAB
TAFAOO
TAF AMD
KAOO 212142Z 2122/2218 30006KT P6SM -SHRA VCTS BKN040CB
      TEMPO 2122/2124 3SM SHRA OVC012
     FM220100 33007KT 5SM -SHRA BR OVC012
     FM220600 34008KT 3SM -DZ BR OVC007=



000
FTUS41 KCTP 212142 AAA
TAFMDT
TAF AMD
KMDT 212142Z 2122/2218 30007KT P6SM VCTS BKN040CB
     FM220300 27007KT 5SM -SHRA BR OVC020
     FM220900 32008G15KT P6SM VCSH OVC035=



000
FTUS41 KCTP 212142 AAA
TAFJST
TAF AMD
KJST 212142Z 2122/2218 30010KT 6SM -SHRA BR BKN022 OVC035
     FM220300 34008KT 4SM -SHRA BR BKN004 OVC009
     FM220900 34008KT 2SM -DZ BR OVC004=



000
FTUS41 KCTP 212142 AAC
TAFBFD
TAF AMD
KBFD 212142Z 2122/2218 33006KT P6SM -SHRA BKN015 OVC035
     FM212300 34007KT 4SM -SHRA BR OVC012
     FM220500 34010KT 2SM -SHRA BR BKN004 OVC009
     FM221000 35010KT 4SM -DZ BR OVC004=



000
FTUS41 KCTP 212142 AAA
TAFMDT
TAF AMD
KMDT 212142Z 2122/2218 30007KT P6SM VCTS BKN040CB
     FM220300 27007KT 5SM -SHRA BR OVC020
     FM220900 32008G15KT P6SM VCSH OVC035=



000
FTUS41 KCTP 212142 AAB
TAFUNV
TAF AMD
KUNV 212142Z 2122/2218 VRB04KT 4SM -SHRA VCTS SCT025 OVC040CB
      TEMPO 2122/2124 3SM -SHRA OVC012
     FM220100 33007KT 5SM -SHRA BR OVC010
     FM220600 34008KT 2SM -DZ BR OVC005=



000
FTUS41 KCTP 212142 AAB
TAFAOO
TAF AMD
KAOO 212142Z 2122/2218 30006KT P6SM -SHRA VCTS BKN040CB
      TEMPO 2122/2124 3SM SHRA OVC012
     FM220100 33007KT 5SM -SHRA BR OVC012
     FM220600 34008KT 3SM -DZ BR OVC007=



000
FTUS41 KCTP 212142 AAA
TAFJST
TAF AMD
KJST 212142Z 2122/2218 30010KT 6SM -SHRA BR BKN022 OVC035
     FM220300 34008KT 4SM -SHRA BR BKN004 OVC009
     FM220900 34008KT 2SM -DZ BR OVC004=



000
FTUS41 KCTP 212142 AAB
TAFIPT
TAF AMD
KIPT 212142Z 2122/2218 00000KT P6SM VCSH SCT025 OVC035
     FM220100 33007KT 5SM -SHRA BR OVC010
     FM220600 34008KT 2SM -DZ BR OVC005=



000
FTUS41 KCTP 212051 AAB
TAFBFD
TAF AMD
KBFD 212051Z 2121/2218 33006KT P6SM -SHRA BKN015 OVC035
     FM212200 34007KT 4SM -SHRA BR OVC012
     FM220500 34010KT 2SM -SHRA BR BKN004 OVC009
     FM221000 35010KT 4SM -DZ BR OVC004=



000
FTUS41 KCTP 212019 AAA
TAFIPT
TAF AMD
KIPT 212019Z 2120/2218 00000KT P6SM VCSH SCT025 OVC035
     FM212200 VRB03KT 6SM -SHRA BR VCTS SCT025 OVC035CB
      TEMPO 2122/2124 3SM SHRA OVC012
     FM220100 33007KT 5SM -SHRA BR OVC010
     FM220600 34008KT 2SM -DZ BR OVC005=



000
FTUS41 KCTP 212017 AAA
TAFBFD
TAF AMD
KBFD 212017Z 2120/2218 33006KT P6SM -SHRA SCT015 OVC035
     FM212200 34007KT 6SM -SHRA BR OVC012
     FM220500 34010KT 2SM -SHRA BR BKN004 OVC009
     FM221000 35010KT 4SM -DZ BR OVC004=



000
FTUS41 KCTP 212014 AAA
TAFAOO
TAF AMD
KAOO 212014Z 2120/2218 30006KT P6SM -SHRA VCTS BKN040CB
     FM212200 30007KT 5SM -SHRA BR BKN020 OVC030
      TEMPO 2122/2124 3SM SHRA OVC012
     FM220100 33007KT 5SM -SHRA BR OVC012
     FM220600 34008KT 3SM -DZ BR OVC007=



000
FTUS41 KCTP 212013 AAA
TAFUNV
TAF AMD
KUNV 212013Z 2120/2218 VRB04KT 4SM -SHRA VCTS BKN021 OVC040CB
     FM212100 31007KT P6SM VCSH SCT020 OVC027
      TEMPO 2122/2124 3SM -SHRA OVC012
     FM220100 33007KT 5SM -SHRA BR OVC010
     FM220600 34008KT 2SM -DZ BR OVC005=



000
FTUS41 KCTP 211740
TAFUNV
TAF
KUNV 211740Z 2118/2218 VRB03KT 4SM -SHRA SCT020 OVC030
     FM212000 31007KT 6SM -SHRA BR SCT015 OVC025
      TEMPO 2121/2124 3SM -SHRA OVC012
     FM220100 33007KT 5SM -SHRA BR OVC010
     FM220600 34008KT 2SM -DZ BR OVC005=



000
FTUS41 KCTP 211740
TAFJST
TAF
KJST 211740Z 2118/2218 30010KT 5SM -SHRA BR BKN013 OVC022
     FM211900 32012KT 6SM BR BKN025 OVC040
     FM212100 33010KT 6SM -SHRA OVC010
     FM220300 34008KT 4SM -SHRA BR BKN004 OVC009
     FM220900 34008KT 2SM -DZ BR OVC004=



000
FTUS41 KCTP 211740
TAFIPT
TAF
KIPT 211740Z 2118/2218 00000KT P6SM VCSH SCT025 OVC035
     FM212000 VRB03KT 6SM -SHRA BR SCT015 OVC025
      TEMPO 2121/2124 3SM -SHRA OVC012
     FM220100 33007KT 5SM -SHRA BR OVC010
     FM220600 34008KT 2SM -DZ BR OVC005=



000
FTUS41 KCTP 211740
TAFMDT
TAF
KMDT 211740Z 2118/2218 27005KT 3SM BR OVC050
     FM211800 27007KT P6SM VCTS BKN040CB
     FM212300 27007KT 5SM -SHRA BR OVC020
     FM220900 32008G15KT P6SM VCSH OVC035=



000
FTUS41 KCTP 211740
TAFAOO
TAF
KAOO 211740Z 2118/2218 30006KT 6SM -SHRA VCTS SCT025 BKN040CB
     FM212000 30007KT 6SM -SHRA BR BKN020 OVC030
      TEMPO 2121/2124 3SM -SHRA OVC012
     FM220100 33007KT 5SM -SHRA BR OVC012
     FM220600 34008KT 3SM -DZ BR OVC007=



000
FTUS41 KCTP 211740
TAFBFD
TAF
KBFD 211740Z 2118/2218 33007KT 3SM -SHRA OVC020
     FM212200 35007KT 6SM -SHRA BR OVC012
     FM220500 34010KT 2SM -SHRA BR BKN004 OVC009
     FM221000 35010KT 4SM -DZ BR OVC004=



000
FTUS41 KCTP 211634 AAD
TAFJST
TAF AMD
KJST 211634Z 2117/2212 27010KT 6SM BR BKN013 OVC022
     FM211700 32012KT 6SM -SHRA BR VCTS BKN025 OVC040CB
     FM212100 33010KT P6SM -SHRA OVC015
     FM220500 35008KT 4SM -SHRA BR BKN004 OVC009=



000
FTUS41 KCTP 211634 AAD
TAFJST
TAF AMD
KJST 211634Z 2117/2212 27010KT 6SM BR BKN013 OVC022
     FM211700 32012KT 6SM -SHRA BR VCTS BKN025 OVC040CB
     FM212100 33010KT P6SM -SHRA OVC015
     FM220500 35008KT 4SM -SHRA BR BKN004 OVC009=



000
FTUS41 KCTP 211556 AAA
TAFBFD
TAF AMD
KBFD 211556Z 2116/2212 VRB03KT 4SM -SHRA BR SCT012 OVC030
     FM211700 33007KT P6SM VCSH BKN025
     FM220500 34008KT 4SM -SHRA BR BKN004 OVC009=



000
FTUS41 KCTP 211556 AAA
TAFBFD
TAF AMD
KBFD 211556Z 2116/2212 VRB03KT 4SM -SHRA BR SCT012 OVC030
     FM211700 33007KT P6SM VCSH BKN025
     FM220500 34008KT 4SM -SHRA BR BKN004 OVC009=



000
FTUS41 KCTP 211556 AAA
TAFBFD
TAF AMD
KBFD 211556Z 2116/2212 VRB03KT 4SM -SHRA BR SCT012 OVC030
     FM211700 33007KT P6SM VCSH BKN025
     FM220500 34008KT 4SM -SHRA BR BKN004 OVC009=



000
FTUS41 KCTP 211556 AAA
TAFBFD
TAF AMD
KBFD 211556Z 2116/2212 VRB03KT 4SM -SHRA BR SCT012 OVC030
     FM211700 33007KT P6SM VCSH BKN025
     FM220500 34008KT 4SM -SHRA BR BKN004 OVC009=



000
FTUS41 KCTP 211355 AAC
TAFJST
TAF AMD
KJST 211355Z 2114/2212 27007KT 1SM BR OVC002
     FM211430 25007KT 1 1/2SM -SHRA BR OVC004
     FM211530 27007KT 2SM BR OVC007
     FM211700 34008KT P6SM VCSH OVC015
     FM220500 35008KT 4SM -SHRA BR BKN004 OVC009=



000
FTUS41 KCTP 211355 AAC
TAFJST
TAF AMD
KJST 211355Z 2114/2212 27007KT 1SM BR OVC002
     FM211430 25007KT 1 1/2SM -SHRA BR OVC004
     FM211530 27007KT 2SM BR OVC007
     FM211700 34008KT P6SM VCSH OVC015
     FM220500 35008KT 4SM -SHRA BR BKN004 OVC009=



000
FTUS41 KCTP 211328 AAB
TAFMDT
TAF AMD
KMDT 211328Z 2113/2212 VRB05KT 2SM BR BKN050
     FM211400 28005KT 3SM BR OVC050
     FM211800 30007KT P6SM VCSH BKN040
     FM220900 32008G15KT P6SM VCSH OVC035=



000
FTUS41 KCTP 211328 AAB
TAFMDT
TAF AMD
KMDT 211328Z 2113/2212 VRB05KT 2SM BR BKN050
     FM211400 28005KT 3SM BR OVC050
     FM211800 30007KT P6SM VCSH BKN040
     FM220900 32008G15KT P6SM VCSH OVC035=



000
FTUS41 KCTP 211327 AAB
TAFJST
TAF AMD
KJST 211327Z 2113/2212 27007KT 1/4SM FG BKN002 OVC015
     FM211400 25007KT 3/4SM -SHRA BR OVC004
     FM211530 27007KT 2SM BR OVC007
     FM211700 34008KT P6SM VCSH OVC015
     FM220500 35008KT 4SM -SHRA BR BKN004 OVC009=



000
FTUS41 KCTP 211327 AAB
TAFJST
TAF AMD
KJST 211327Z 2113/2212 27007KT 1/4SM FG BKN002 OVC015
     FM211400 25007KT 3/4SM -SHRA BR OVC004
     FM211530 27007KT 2SM BR OVC007
     FM211700 34008KT P6SM VCSH OVC015
     FM220500 35008KT 4SM -SHRA BR BKN004 OVC009=



000
FTUS41 KCTP 211311 AAA
TAFMDT
TAF AMD
KMDT 211311Z 2113/2212 VRB05KT 3SM BR BKN050
     FM211400 28005KT 6SM HZ OVC050
     FM211800 30007KT P6SM VCSH BKN040
     FM220900 32008G15KT P6SM VCSH OVC035=



000
FTUS41 KCTP 211311 AAA
TAFMDT
TAF AMD
KMDT 211311Z 2113/2212 VRB05KT 3SM BR BKN050
     FM211400 28005KT 6SM HZ OVC050
     FM211800 30007KT P6SM VCSH BKN040
     FM220900 32008G15KT P6SM VCSH OVC035=



000
FTUS41 KCTP 211309 AAA
TAFUNV
TAF AMD
KUNV 211309Z 2113/2212 00000KT P6SM VCSH SCT020 OVC040
     FM211430 21003KT 3SM -SHRA BKN020 OVC035
     FM211700 24005KT 6SM -SHRA OVC035
     FM220200 33007KT 5SM -SHRA BR OVC030=



000
FTUS41 KCTP 211309 AAA
TAFUNV
TAF AMD
KUNV 211309Z 2113/2212 00000KT P6SM VCSH SCT020 OVC040
     FM211430 21003KT 3SM -SHRA BKN020 OVC035
     FM211700 24005KT 6SM -SHRA OVC035
     FM220200 33007KT 5SM -SHRA BR OVC030=



000
FTUS41 KCTP 211306 AAA
TAFAOO
TAF AMD
KAOO 211306Z 2113/2212 25006KT P6SM BKN030 OVC040
     FM211400 25007KT P6SM BKN025 OVC035
     FM211700 30007KT 6SM -SHRA BKN035
     FM220100 33007KT 5SM -SHRA BR OVC030=



000
FTUS41 KCTP 211306 AAA
TAFAOO
TAF AMD
KAOO 211306Z 2113/2212 25006KT P6SM BKN030 OVC040
     FM211400 25007KT P6SM BKN025 OVC035
     FM211700 30007KT 6SM -SHRA BKN035
     FM220100 33007KT 5SM -SHRA BR OVC030=



000
FTUS41 KCTP 211305 AAA
TAFJST
TAF AMD
KJST 211305Z 2113/2212 27007KT 1/2SM FG BKN002 OVC015
     FM211400 33007KT 2SM -SHRA BR OVC004
     FM211700 34008KT P6SM VCSH OVC015
     FM220500 35008KT 4SM -SHRA BR BKN004 OVC009=



000
FTUS41 KCTP 211305 AAA
TAFJST
TAF AMD
KJST 211305Z 2113/2212 27007KT 1/2SM FG BKN002 OVC015
     FM211400 33007KT 2SM -SHRA BR OVC004
     FM211700 34008KT P6SM VCSH OVC015
     FM220500 35008KT 4SM -SHRA BR BKN004 OVC009=



000
FTUS41 KCTP 211136
TAFIPT
TAF
KIPT 211136Z 2112/2212 VRB05KT P6SM VCSH SCT025 OVC040
     FM211800 29007KT P6SM VCSH BKN035
     FM220400 31007KT 5SM -SHRA BR OVC030=



000
FTUS41 KCTP 211136
TAFBFD
TAF
KBFD 211136Z 2112/2212 22005KT P6SM -SHRA OVC002
     FM211700 33007KT P6SM VCSH OVC015
     FM220500 34008KT 4SM -SHRA BR BKN004 OVC009=



000
FTUS41 KCTP 211136
TAFUNV
TAF
KUNV 211136Z 2112/2212 23006KT P6SM VCSH BKN025 OVC070
     FM211600 30007KT P6SM VCSH BKN035
     FM220200 33007KT 5SM -SHRA BR OVC030=



000
FTUS41 KCTP 211136
TAFMDT
TAF
KMDT 211136Z 2112/2212 VRB05KT 2SM BR BKN035
     FM211500 28005KT P6SM BKN050
     FM211900 30007KT P6SM VCSH BKN040
     FM220900 32008G15KT P6SM VCSH OVC035=



000
FTUS41 KCTP 211136
TAFBFD
TAF
KBFD 211136Z 2112/2212 22005KT P6SM -SHRA OVC002
     FM211700 33007KT P6SM VCSH OVC015
     FM220500 34008KT 4SM -SHRA BR BKN004 OVC009=



000
FTUS41 KCTP 211136
TAFMDT
TAF
KMDT 211136Z 2112/2212 VRB05KT 2SM BR BKN035
     FM211500 28005KT P6SM BKN050
     FM211900 30007KT P6SM VCSH BKN040
     FM220900 32008G15KT P6SM VCSH OVC035=



000
FTUS41 KCTP 211136
TAFIPT
TAF
KIPT 211136Z 2112/2212 VRB05KT P6SM VCSH SCT025 OVC040
     FM211800 29007KT P6SM VCSH BKN035
     FM220400 31007KT 5SM -SHRA BR OVC030=



000
FTUS41 KCTP 211136
TAFUNV
TAF
KUNV 211136Z 2112/2212 23006KT P6SM VCSH BKN025 OVC070
     FM211600 30007KT P6SM VCSH BKN035
     FM220200 33007KT 5SM -SHRA BR OVC030=



000
FTUS41 KCTP 211136
TAFBFD
TAF
KBFD 211136Z 2112/2212 22005KT P6SM -SHRA OVC002
     FM211700 33007KT P6SM VCSH OVC015
     FM220500 34008KT 4SM -SHRA BR BKN004 OVC009=



000
FTUS41 KCTP 211136
TAFAOO
TAF
KAOO 211136Z 2112/2212 25006KT P6SM BKN018 OVC030
     FM211700 30007KT P6SM VCSH BKN035
     FM220100 33007KT 5SM -SHRA BR OVC030=



000
FTUS41 KCTP 211136
TAFJST
TAF
KJST 211136Z 2112/2212 27007KT 1/4SM -SHRA FG BKN002 OVC015
     FM211400 33007KT 2SM -SHRA BR OVC004
     FM211700 34008KT P6SM VCSH OVC015
     FM220500 35008KT 4SM -SHRA BR BKN004 OVC009=



000
FTUS41 KCTP 211136
TAFMDT
TAF
KMDT 211136Z 2112/2212 VRB05KT 2SM BR BKN035
     FM211500 28005KT P6SM BKN050
     FM211900 30007KT P6SM VCSH BKN040
     FM220900 32008G15KT P6SM VCSH OVC035=



000
FTUS41 KCTP 211136
TAFIPT
TAF
KIPT 211136Z 2112/2212 VRB05KT P6SM VCSH SCT025 OVC040
     FM211800 29007KT P6SM VCSH BKN035
     FM220400 31007KT 5SM -SHRA BR OVC030=



000
FTUS41 KCTP 211136
TAFUNV
TAF
KUNV 211136Z 2112/2212 23006KT P6SM VCSH BKN025 OVC070
     FM211600 30007KT P6SM VCSH BKN035
     FM220200 33007KT 5SM -SHRA BR OVC030=



000
FTUS41 KCTP 211136
TAFJST
TAF
KJST 211136Z 2112/2212 27007KT 1/4SM -SHRA FG BKN002 OVC015
     FM211400 33007KT 2SM -SHRA BR OVC004
     FM211700 34008KT P6SM VCSH OVC015
     FM220500 35008KT 4SM -SHRA BR BKN004 OVC009=



000
FTUS41 KCTP 211136
TAFAOO
TAF
KAOO 211136Z 2112/2212 25006KT P6SM BKN018 OVC030
     FM211700 30007KT P6SM VCSH BKN035
     FM220100 33007KT 5SM -SHRA BR OVC030=



000
FTUS41 KCTP 211136
TAFJST
TAF
KJST 211136Z 2112/2212 27007KT 1/4SM -SHRA FG BKN002 OVC015
     FM211400 33007KT 2SM -SHRA BR OVC004
     FM211700 34008KT P6SM VCSH OVC015
     FM220500 35008KT 4SM -SHRA BR BKN004 OVC009=



000
FTUS41 KCTP 211136
TAFBFD
TAF
KBFD 211136Z 2112/2212 22005KT P6SM -SHRA OVC002
     FM211700 33007KT P6SM VCSH OVC015
     FM220500 34008KT 4SM -SHRA BR BKN004 OVC009=



000
FTUS41 KCTP 211136
TAFAOO
TAF
KAOO 211136Z 2112/2212 25006KT P6SM BKN018 OVC030
     FM211700 30007KT P6SM VCSH BKN035
     FM220100 33007KT 5SM -SHRA BR OVC030=



000
FTUS41 KCTP 211136
TAFIPT
TAF
KIPT 211136Z 2112/2212 VRB05KT P6SM VCSH SCT025 OVC040
     FM211800 29007KT P6SM VCSH BKN035
     FM220400 31007KT 5SM -SHRA BR OVC030=



000
FTUS41 KCTP 211136
TAFAOO
TAF
KAOO 211136Z 2112/2212 25006KT P6SM BKN018 OVC030
     FM211700 30007KT P6SM VCSH BKN035
     FM220100 33007KT 5SM -SHRA BR OVC030=



000
FTUS41 KCTP 211136
TAFMDT
TAF
KMDT 211136Z 2112/2212 VRB05KT 2SM BR BKN035
     FM211500 28005KT P6SM BKN050
     FM211900 30007KT P6SM VCSH BKN040
     FM220900 32008G15KT P6SM VCSH OVC035=



000
FTUS41 KCTP 211136
TAFUNV
TAF
KUNV 211136Z 2112/2212 23006KT P6SM VCSH BKN025 OVC070
     FM211600 30007KT P6SM VCSH BKN035
     FM220200 33007KT 5SM -SHRA BR OVC030=



000
FTUS41 KCTP 211136
TAFJST
TAF
KJST 211136Z 2112/2212 27007KT 1/4SM -SHRA FG BKN002 OVC015
     FM211400 33007KT 2SM -SHRA BR OVC004
     FM211700 34008KT P6SM VCSH OVC015
     FM220500 35008KT 4SM -SHRA BR BKN004 OVC009=



000
FTUS41 KCTP 211042 AAB
TAFAOO
TAF AMD
KAOO 211042Z 2111/2206 23003KT P6SM BKN030
     FM211700 30007KT P6SM VCSH BKN035
     FM220100 33007KT 5SM -SHRA BR OVC030=



000
FTUS41 KCTP 211042 AAB
TAFAOO
TAF AMD
KAOO 211042Z 2111/2206 23003KT P6SM BKN030
     FM211700 30007KT P6SM VCSH BKN035
     FM220100 33007KT 5SM -SHRA BR OVC030=



000
FTUS41 KCTP 211042 AAB
TAFAOO
TAF AMD
KAOO 211042Z 2111/2206 23003KT P6SM BKN030
     FM211700 30007KT P6SM VCSH BKN035
     FM220100 33007KT 5SM -SHRA BR OVC030=



000
FTUS41 KCTP 211042 AAB
TAFAOO
TAF AMD
KAOO 211042Z 2111/2206 23003KT P6SM BKN030
     FM211700 30007KT P6SM VCSH BKN035
     FM220100 33007KT 5SM -SHRA BR OVC030=



000
FTUS41 KCTP 211041 AAF
TAFJST
TAF AMD
KJST 211041Z 2111/2206 22007KT 1/4SM -SHRA FG BKN002 OVC015
     FM211400 33007KT 2SM -SHRA BR OVC004
     FM211700 34008KT P6SM VCSH OVC015
     FM220500 35008KT 4SM -SHRA BR BKN004 OVC009=



000
FTUS41 KCTP 211041 AAF
TAFJST
TAF AMD
KJST 211041Z 2111/2206 22007KT 1/4SM -SHRA FG BKN002 OVC015
     FM211400 33007KT 2SM -SHRA BR OVC004
     FM211700 34008KT P6SM VCSH OVC015
     FM220500 35008KT 4SM -SHRA BR BKN004 OVC009=



000
FTUS41 KCTP 211041 AAF
TAFJST
TAF AMD
KJST 211041Z 2111/2206 22007KT 1/4SM -SHRA FG BKN002 OVC015
     FM211400 33007KT 2SM -SHRA BR OVC004
     FM211700 34008KT P6SM VCSH OVC015
     FM220500 35008KT 4SM -SHRA BR BKN004 OVC009=



000
FTUS41 KCTP 211041 AAF
TAFJST
TAF AMD
KJST 211041Z 2111/2206 22007KT 1/4SM -SHRA FG BKN002 OVC015
     FM211400 33007KT 2SM -SHRA BR OVC004
     FM211700 34008KT P6SM VCSH OVC015
     FM220500 35008KT 4SM -SHRA BR BKN004 OVC009=



000
FTUS41 KCTP 211040 AAE
TAFJST
TAF AMD
KJST 211040Z 2111/2206 22007KT 3/4SM -SHRA BR BKN002 OVC015
     FM211400 33007KT 2SM -SHRA BR OVC004
     FM211700 34008KT P6SM VCSH OVC015
     FM220500 35008KT 4SM -SHRA BR BKN004 OVC009=



000
FTUS41 KCTP 211040 AAE
TAFJST
TAF AMD
KJST 211040Z 2111/2206 22007KT 3/4SM -SHRA BR BKN002 OVC015
     FM211400 33007KT 2SM -SHRA BR OVC004
     FM211700 34008KT P6SM VCSH OVC015
     FM220500 35008KT 4SM -SHRA BR BKN004 OVC009=



000
FTUS41 KCTP 211040 AAE
TAFJST
TAF AMD
KJST 211040Z 2111/2206 22007KT 3/4SM -SHRA BR BKN002 OVC015
     FM211400 33007KT 2SM -SHRA BR OVC004
     FM211700 34008KT P6SM VCSH OVC015
     FM220500 35008KT 4SM -SHRA BR BKN004 OVC009=



000
FTUS41 KCTP 211040 AAD
TAFMDT
TAF AMD
KMDT 211040Z 2111/2206 VRB05KT 2SM BR BKN035
     FM211300 28005KT P6SM BKN050
     FM211900 30007KT P6SM VCSH BKN040=



000
FTUS41 KCTP 211040 AAD
TAFMDT
TAF AMD
KMDT 211040Z 2111/2206 VRB05KT 2SM BR BKN035
     FM211300 28005KT P6SM BKN050
     FM211900 30007KT P6SM VCSH BKN040=



000
FTUS41 KCTP 211040 AAD
TAFMDT
TAF AMD
KMDT 211040Z 2111/2206 VRB05KT 2SM BR BKN035
     FM211300 28005KT P6SM BKN050
     FM211900 30007KT P6SM VCSH BKN040=



000
FTUS41 KCTP 211040 AAD
TAFMDT
TAF AMD
KMDT 211040Z 2111/2206 VRB05KT 2SM BR BKN035
     FM211300 28005KT P6SM BKN050
     FM211900 30007KT P6SM VCSH BKN040=



000
FTUS41 KCTP 211008 AAD
TAFJST
TAF AMD
KJST 211008Z 2110/2206 22007KT 5SM -SHRA BR BKN006 OVC015
     FM211400 33007KT 2SM -SHRA BR OVC004
     FM211700 34008KT P6SM VCSH OVC015
     FM220500 35008KT 4SM -SHRA BR BKN004 OVC009=



000
FTUS41 KCTP 211008 AAD
TAFJST
TAF AMD
KJST 211008Z 2110/2206 22007KT 5SM -SHRA BR BKN006 OVC015
     FM211400 33007KT 2SM -SHRA BR OVC004
     FM211700 34008KT P6SM VCSH OVC015
     FM220500 35008KT 4SM -SHRA BR BKN004 OVC009=



000
FTUS41 KCTP 211008 AAD
TAFJST
TAF AMD
KJST 211008Z 2110/2206 22007KT 5SM -SHRA BR BKN006 OVC015
     FM211400 33007KT 2SM -SHRA BR OVC004
     FM211700 34008KT P6SM VCSH OVC015
     FM220500 35008KT 4SM -SHRA BR BKN004 OVC009=



000
FTUS41 KCTP 211008 AAD
TAFJST
TAF AMD
KJST 211008Z 2110/2206 22007KT 5SM -SHRA BR BKN006 OVC015
     FM211400 33007KT 2SM -SHRA BR OVC004
     FM211700 34008KT P6SM VCSH OVC015
     FM220500 35008KT 4SM -SHRA BR BKN004 OVC009=



000
FTUS41 KCTP 211006 AAC
TAFMDT
TAF AMD
KMDT 211006Z 2110/2206 VRB05KT 5SM BR BKN035
     FM211300 28005KT P6SM BKN050
     FM211900 30007KT P6SM VCSH BKN040=



000
FTUS41 KCTP 211006 AAC
TAFMDT
TAF AMD
KMDT 211006Z 2110/2206 VRB05KT 5SM BR BKN035
     FM211300 28005KT P6SM BKN050
     FM211900 30007KT P6SM VCSH BKN040=



000
FTUS41 KCTP 211006 AAC
TAFMDT
TAF AMD
KMDT 211006Z 2110/2206 VRB05KT 5SM BR BKN035
     FM211300 28005KT P6SM BKN050
     FM211900 30007KT P6SM VCSH BKN040=



000
FTUS41 KCTP 211006 AAC
TAFMDT
TAF AMD
KMDT 211006Z 2110/2206 VRB05KT 5SM BR BKN035
     FM211300 28005KT P6SM BKN050
     FM211900 30007KT P6SM VCSH BKN040=



000
FTUS41 KCTP 210951 AAC
TAFJST
TAF AMD
KJST 210951Z 2110/2206 22007KT P6SM VCSH BKN008 OVC015
     FM211400 33007KT 2SM -SHRA BR OVC004
     FM211700 34008KT P6SM VCSH OVC015
     FM220500 35008KT 4SM -SHRA BR BKN004 OVC009=



000
FTUS41 KCTP 210951 AAC
TAFJST
TAF AMD
KJST 210951Z 2110/2206 22007KT P6SM VCSH BKN008 OVC015
     FM211400 33007KT 2SM -SHRA BR OVC004
     FM211700 34008KT P6SM VCSH OVC015
     FM220500 35008KT 4SM -SHRA BR BKN004 OVC009=



000
FTUS41 KCTP 210940 AAA
TAFIPT
TAF AMD
KIPT 210940Z 2110/2206 VRB05KT P6SM VCSH OVC040
      TEMPO 2110/2112 5SM SHRA BR
     FM211800 29007KT P6SM VCSH BKN035
     FM220400 32007KT 5SM -SHRA BR OVC030=



000
FTUS41 KCTP 210940 AAB
TAFMDT
TAF AMD
KMDT 210940Z 2110/2206 06005KT P6SM VCSH SCT009 BKN035 OVC060
     FM211100 VRB05KT 5SM BR BKN050
     FM211300 28005KT P6SM BKN050
     FM211900 30007KT P6SM VCSH BKN040=



000
FTUS41 KCTP 210940 AAA
TAFIPT
TAF AMD
KIPT 210940Z 2110/2206 VRB05KT P6SM VCSH OVC040
      TEMPO 2110/2112 5SM SHRA BR
     FM211800 29007KT P6SM VCSH BKN035
     FM220400 32007KT 5SM -SHRA BR OVC030=



000
FTUS41 KCTP 210940 AAA
TAFAOO
TAF AMD
KAOO 210940Z 2110/2206 22006KT P6SM VCSH SCT025 OVC040
     FM211200 23003KT P6SM BKN030
     FM211700 30007KT P6SM VCSH BKN035
     FM220100 33007KT 5SM -SHRA BR OVC030=



000
FTUS41 KCTP 210940 AAC
TAFBFD
TAF AMD
KBFD 210940Z 2110/2206 22005KT P6SM -SHRA OVC004
     FM211400 32007KT 2SM -SHRA BR OVC004
     FM211700 33007KT P6SM VCSH OVC015
     FM220500 34008KT 4SM -SHRA BR BKN004 OVC009=



000
FTUS41 KCTP 210940 AAA
TAFUNV
TAF AMD
KUNV 210940Z 2110/2206 23003KT P6SM VCSH BKN030 OVC070
     FM211600 30007KT P6SM VCSH BKN035
     FM220200 33007KT 5SM -SHRA BR OVC030=



000
FTUS41 KCTP 210940 AAB
TAFJST
TAF AMD
KJST 210940Z 2110/2206 22007KT P6SM VCSH BKN009 OVC015
     FM211400 33007KT 2SM -SHRA BR OVC004
     FM211700 34008KT P6SM VCSH OVC015
     FM220500 35008KT 4SM -SHRA BR BKN004 OVC009=



000
FTUS41 KCTP 210709 AAB
TAFBFD
TAF AMD
KBFD 210709Z 2107/2206 24005KT 3SM -SHRA BR OVC005
     FM211400 32007KT 1SM -SHRA BR OVC004
     FM211700 33007KT P6SM VCSH OVC015
     FM220500 34008KT 4SM -SHRA BR BKN004 OVC009=



000
FTUS41 KCTP 210709 AAB
TAFBFD
TAF AMD
KBFD 210709Z 2107/2206 24005KT 3SM -SHRA BR OVC005
     FM211400 32007KT 1SM -SHRA BR OVC004
     FM211700 33007KT P6SM VCSH OVC015
     FM220500 34008KT 4SM -SHRA BR BKN004 OVC009=



000
FTUS41 KCTP 210708 AAA
TAFJST
TAF AMD
KJST 210708Z 2107/2206 22008KT P6SM -SHRA BKN018 OVC025
     FM211000 26007KT 5SM -SHRA BR BKN009 OVC015
     FM211400 33007KT 2SM -SHRA BR OVC004
     FM211700 34008KT P6SM VCSH OVC015
     FM220500 35008KT 4SM -SHRA BR BKN004 OVC009=



000
FTUS41 KCTP 210708 AAA
TAFJST
TAF AMD
KJST 210708Z 2107/2206 22008KT P6SM -SHRA BKN018 OVC025
     FM211000 26007KT 5SM -SHRA BR BKN009 OVC015
     FM211400 33007KT 2SM -SHRA BR OVC004
     FM211700 34008KT P6SM VCSH OVC015
     FM220500 35008KT 4SM -SHRA BR BKN004 OVC009=



000
FTUS41 KCTP 210628 AAA
TAFMDT
TAF AMD
KMDT 210628Z 2106/2206 18005KT P6SM VCSH BKN035 OVC060
     FM211000 VRB05KT 5SM BR BKN050
     FM211300 28005KT P6SM BKN050
     FM211900 30007KT P6SM VCSH BKN040=



000
FTUS41 KCTP 210628 AAA
TAFMDT
TAF AMD
KMDT 210628Z 2106/2206 18005KT P6SM VCSH BKN035 OVC060
     FM211000 VRB05KT 5SM BR BKN050
     FM211300 28005KT P6SM BKN050
     FM211900 30007KT P6SM VCSH BKN040=



000
FTUS41 KCTP 210557 AAA
TAFBFD
TAF AMD
KBFD 210557Z 2106/2206 23006KT P6SM -SHRA BKN005 OVC012
     FM210800 25005KT 3SM -SHRA BR OVC005
     FM211400 32007KT 1SM -SHRA BR OVC004
     FM211700 33007KT P6SM VCSH OVC015
     FM220500 34008KT 4SM -SHRA BR BKN004 OVC009=



000
FTUS41 KCTP 210557 AAA
TAFBFD
TAF AMD
KBFD 210557Z 2106/2206 23006KT P6SM -SHRA BKN005 OVC012
     FM210800 25005KT 3SM -SHRA BR OVC005
     FM211400 32007KT 1SM -SHRA BR OVC004
     FM211700 33007KT P6SM VCSH OVC015
     FM220500 34008KT 4SM -SHRA BR BKN004 OVC009=



000
FTUS41 KCTP 210540
TAFMDT
TAF
KMDT 210540Z 2106/2206 18005KT 3SM +SHRA BR BKN035 OVC060
     FM211000 VRB05KT 5SM BR BKN050
     FM211300 28005KT P6SM BKN050
     FM211900 30007KT P6SM VCSH BKN040=



000
FTUS41 KCTP 210540
TAFJST
TAF
KJST 210540Z 2106/2206 22007KT P6SM -SHRA BKN025 OVC035
     FM210900 26007KT 5SM -SHRA BR BKN009 OVC015
     FM211400 33007KT 2SM -SHRA BR OVC004
     FM211700 34008KT P6SM VCSH OVC015
     FM220500 35008KT 4SM -SHRA BR BKN004 OVC009=



000
FTUS41 KCTP 210540
TAFIPT
TAF
KIPT 210540Z 2106/2206 VRB05KT P6SM VCSH OVC060
     FM211200 VRB05KT P6SM BKN030
     FM211800 29007KT P6SM VCSH BKN035
     FM220400 32007KT 5SM -SHRA BR OVC030=



000
FTUS41 KCTP 210540
TAFAOO
TAF
KAOO 210540Z 2106/2206 VRB05KT P6SM VCSH OVC040
     FM211000 23003KT P6SM BKN030
     FM211700 30007KT P6SM VCSH BKN035
     FM220100 33007KT 5SM -SHRA BR OVC030=



000
FTUS41 KCTP 210540
TAFBFD
TAF
KBFD 210540Z 2106/2206 23006KT P6SM -SHRA BKN006 OVC012
     FM210800 25005KT 3SM -SHRA BR OVC005
     FM211400 32007KT 1SM -SHRA BR OVC004
     FM211700 33007KT P6SM VCSH OVC015
     FM220500 34008KT 4SM -SHRA BR BKN004 OVC009=



000
FTUS41 KCTP 210540
TAFUNV
TAF
KUNV 210540Z 2106/2206 22003KT P6SM VCSH OVC070
     FM211100 23003KT P6SM BKN030
     FM211700 30007KT P6SM VCSH BKN035
     FM220200 33007KT 5SM -SHRA BR OVC030=



000
FTUS41 KCTP 210540
TAFMDT
TAF
KMDT 210540Z 2106/2206 18005KT 3SM +SHRA BR BKN035 OVC060
     FM211000 VRB05KT 5SM BR BKN050
     FM211300 28005KT P6SM BKN050
     FM211900 30007KT P6SM VCSH BKN040=



000
FTUS41 KCTP 210540
TAFJST
TAF
KJST 210540Z 2106/2206 22007KT P6SM -SHRA BKN025 OVC035
     FM210900 26007KT 5SM -SHRA BR BKN009 OVC015
     FM211400 33007KT 2SM -SHRA BR OVC004
     FM211700 34008KT P6SM VCSH OVC015
     FM220500 35008KT 4SM -SHRA BR BKN004 OVC009=



000
FTUS41 KCTP 210540
TAFBFD
TAF
KBFD 210540Z 2106/2206 23006KT P6SM -SHRA BKN006 OVC012
     FM210800 25005KT 3SM -SHRA BR OVC005
     FM211400 32007KT 1SM -SHRA BR OVC004
     FM211700 33007KT P6SM VCSH OVC015
     FM220500 34008KT 4SM -SHRA BR BKN004 OVC009=



000
FTUS41 KCTP 210540
TAFIPT
TAF
KIPT 210540Z 2106/2206 VRB05KT P6SM VCSH OVC060
     FM211200 VRB05KT P6SM BKN030
     FM211800 29007KT P6SM VCSH BKN035
     FM220400 32007KT 5SM -SHRA BR OVC030=



000
FTUS41 KCTP 210540
TAFUNV
TAF
KUNV 210540Z 2106/2206 22003KT P6SM VCSH OVC070
     FM211100 23003KT P6SM BKN030
     FM211700 30007KT P6SM VCSH BKN035
     FM220200 33007KT 5SM -SHRA BR OVC030=



000
FTUS41 KCTP 210540
TAFAOO
TAF
KAOO 210540Z 2106/2206 VRB05KT P6SM VCSH OVC040
     FM211000 23003KT P6SM BKN030
     FM211700 30007KT P6SM VCSH BKN035
     FM220100 33007KT 5SM -SHRA BR OVC030=



000
FTUS41 KCTP 210418 AAB
TAFJST
TAF AMD
KJST 210418Z 2104/2124 24008KT P6SM VCSH BKN025 OVC050
     FM210700 22006KT 6SM BR BKN030 OVC050
     FM211100 26006KT 3SM BR OVC005
     FM211700 29008KT P6SM VCSH OVC015=



000
FTUS41 KCTP 210418 AAB
TAFJST
TAF AMD
KJST 210418Z 2104/2124 24008KT P6SM VCSH BKN025 OVC050
     FM210700 22006KT 6SM BR BKN030 OVC050
     FM211100 26006KT 3SM BR OVC005
     FM211700 29008KT P6SM VCSH OVC015=



000
FTUS41 KCTP 210418 AAB
TAFJST
TAF AMD
KJST 210418Z 2104/2124 24008KT P6SM VCSH BKN025 OVC050
     FM210700 22006KT 6SM BR BKN030 OVC050
     FM211100 26006KT 3SM BR OVC005
     FM211700 29008KT P6SM VCSH OVC015=



000
FTUS41 KCTP 210313 AAB
TAFMDT
TAF AMD
KMDT 210313Z 2103/2124 18005KT P6SM VCSH OVC060
     FM211000 VRB03KT 5SM BR BKN050
     FM211300 28003KT P6SM BKN050
     FM211900 30005KT P6SM VCSH BKN040=



000
FTUS41 KCTP 210313 AAB
TAFMDT
TAF AMD
KMDT 210313Z 2103/2124 18005KT P6SM VCSH OVC060
     FM211000 VRB03KT 5SM BR BKN050
     FM211300 28003KT P6SM BKN050
     FM211900 30005KT P6SM VCSH BKN040=



000
FTUS41 KCTP 210313 AAB
TAFMDT
TAF AMD
KMDT 210313Z 2103/2124 18005KT P6SM VCSH OVC060
     FM211000 VRB03KT 5SM BR BKN050
     FM211300 28003KT P6SM BKN050
     FM211900 30005KT P6SM VCSH BKN040=



000
FTUS41 KCTP 210313 AAB
TAFMDT
TAF AMD
KMDT 210313Z 2103/2124 18005KT P6SM VCSH OVC060
     FM211000 VRB03KT 5SM BR BKN050
     FM211300 28003KT P6SM BKN050
     FM211900 30005KT P6SM VCSH BKN040=



000
FTUS41 KCTP 210311 AAA
TAFMDT
TAF AMD
KMDT 210311Z 2103/2124 18005KT P6SM VCSH OVC060
     FM211000 VRB03KT P6SM BKN050
     FM211900 30005KT P6SM VCSH BKN040=



000
FTUS41 KCTP 210311 AAA
TAFMDT
TAF AMD
KMDT 210311Z 2103/2124 18005KT P6SM VCSH OVC060
     FM211000 VRB03KT P6SM BKN050
     FM211900 30005KT P6SM VCSH BKN040=



000
FTUS41 KCTP 210311 AAA
TAFMDT
TAF AMD
KMDT 210311Z 2103/2124 18005KT P6SM VCSH OVC060
     FM211000 VRB03KT P6SM BKN050
     FM211900 30005KT P6SM VCSH BKN040=



000
FTUS41 KCTP 210311 AAA
TAFMDT
TAF AMD
KMDT 210311Z 2103/2124 18005KT P6SM VCSH OVC060
     FM211000 VRB03KT P6SM BKN050
     FM211900 30005KT P6SM VCSH BKN040=



000
FTUS41 KCTP 210253 AAA
TAFIPT
TAF AMD
KIPT 210253Z 2103/2124 VRB03KT P6SM VCSH OVC060
     FM210900 VRB02KT 6SM BR BKN030 OVC050
     FM211900 29004KT P6SM VCSH BKN035=



000
FTUS41 KCTP 210253 AAA
TAFIPT
TAF AMD
KIPT 210253Z 2103/2124 VRB03KT P6SM VCSH OVC060
     FM210900 VRB02KT 6SM BR BKN030 OVC050
     FM211900 29004KT P6SM VCSH BKN035=



000
FTUS41 KCTP 210253 AAA
TAFIPT
TAF AMD
KIPT 210253Z 2103/2124 VRB03KT P6SM VCSH OVC060
     FM210900 VRB02KT 6SM BR BKN030 OVC050
     FM211900 29004KT P6SM VCSH BKN035=



000
FTUS41 KCTP 210251 AAA
TAFUNV
TAF AMD
KUNV 210251Z 2103/2124 22003KT P6SM VCSH OVC040
     FM210800 23003KT 6SM BR BKN025 OVC035
     FM211700 30007KT P6SM VCSH BKN035=



000
FTUS41 KCTP 210251 AAA
TAFUNV
TAF AMD
KUNV 210251Z 2103/2124 22003KT P6SM VCSH OVC040
     FM210800 23003KT 6SM BR BKN025 OVC035
     FM211700 30007KT P6SM VCSH BKN035=



000
FTUS41 KCTP 210251 AAA
TAFUNV
TAF AMD
KUNV 210251Z 2103/2124 22003KT P6SM VCSH OVC040
     FM210800 23003KT 6SM BR BKN025 OVC035
     FM211700 30007KT P6SM VCSH BKN035=



000
FTUS41 KCTP 210251 AAA
TAFUNV
TAF AMD
KUNV 210251Z 2103/2124 22003KT P6SM VCSH OVC040
     FM210800 23003KT 6SM BR BKN025 OVC035
     FM211700 30007KT P6SM VCSH BKN035=



000
FTUS41 KCTP 210250 AAA
TAFAOO
TAF AMD
KAOO 210250Z 2103/2124 22003KT P6SM VCSH OVC040
     FM210800 23003KT 6SM BR BKN030 OVC050
     FM211700 30007KT P6SM VCSH BKN035=



000
FTUS41 KCTP 210250 AAA
TAFAOO
TAF AMD
KAOO 210250Z 2103/2124 22003KT P6SM VCSH OVC040
     FM210800 23003KT 6SM BR BKN030 OVC050
     FM211700 30007KT P6SM VCSH BKN035=



000
FTUS41 KCTP 210250 AAA
TAFAOO
TAF AMD
KAOO 210250Z 2103/2124 22003KT P6SM VCSH OVC040
     FM210800 23003KT 6SM BR BKN030 OVC050
     FM211700 30007KT P6SM VCSH BKN035=



000
FTUS41 KCTP 210250 AAA
TAFAOO
TAF AMD
KAOO 210250Z 2103/2124 22003KT P6SM VCSH OVC040
     FM210800 23003KT 6SM BR BKN030 OVC050
     FM211700 30007KT P6SM VCSH BKN035=



000
FTUS41 KCTP 210246 AAA
TAFJST
TAF AMD
KJST 210246Z 2103/2124 21007KT P6SM VCSH SCT025 OVC050
     FM210700 22006KT 6SM BR BKN030 OVC050
     FM211100 26006KT 3SM BR OVC005
     FM211700 29008KT P6SM VCSH OVC015=



000
FTUS41 KCTP 210246 AAA
TAFJST
TAF AMD
KJST 210246Z 2103/2124 21007KT P6SM VCSH SCT025 OVC050
     FM210700 22006KT 6SM BR BKN030 OVC050
     FM211100 26006KT 3SM BR OVC005
     FM211700 29008KT P6SM VCSH OVC015=



000
FTUS41 KCTP 210246 AAA
TAFJST
TAF AMD
KJST 210246Z 2103/2124 21007KT P6SM VCSH SCT025 OVC050
     FM210700 22006KT 6SM BR BKN030 OVC050
     FM211100 26006KT 3SM BR OVC005
     FM211700 29008KT P6SM VCSH OVC015=



000
FTUS41 KCTP 210246 AAA
TAFJST
TAF AMD
KJST 210246Z 2103/2124 21007KT P6SM VCSH SCT025 OVC050
     FM210700 22006KT 6SM BR BKN030 OVC050
     FM211100 26006KT 3SM BR OVC005
     FM211700 29008KT P6SM VCSH OVC015=



000
FTUS41 KCTP 210244 AAA
TAFBFD
TAF AMD
KBFD 210244Z 2103/2124 20003KT P6SM VCSH SCT025 OVC035
     FM210330 20005KT 5SM -SHRA SCT015 OVC020
     FM210530 20003KT 2SM -SHRA BR OVC007
     FM210700 20002KT 1SM BR VCSH OVC003
     FM211700 31006KT P6SM VCSH OVC015=



000
FTUS41 KCTP 210244 AAA
TAFBFD
TAF AMD
KBFD 210244Z 2103/2124 20003KT P6SM VCSH SCT025 OVC035
     FM210330 20005KT 5SM -SHRA SCT015 OVC020
     FM210530 20003KT 2SM -SHRA BR OVC007
     FM210700 20002KT 1SM BR VCSH OVC003
     FM211700 31006KT P6SM VCSH OVC015=



000
FTUS41 KCTP 210244 AAA
TAFBFD
TAF AMD
KBFD 210244Z 2103/2124 20003KT P6SM VCSH SCT025 OVC035
     FM210330 20005KT 5SM -SHRA SCT015 OVC020
     FM210530 20003KT 2SM -SHRA BR OVC007
     FM210700 20002KT 1SM BR VCSH OVC003
     FM211700 31006KT P6SM VCSH OVC015=



000
FTUS41 KCTP 210244 AAA
TAFBFD
TAF AMD
KBFD 210244Z 2103/2124 20003KT P6SM VCSH SCT025 OVC035
     FM210330 20005KT 5SM -SHRA SCT015 OVC020
     FM210530 20003KT 2SM -SHRA BR OVC007
     FM210700 20002KT 1SM BR VCSH OVC003
     FM211700 31006KT P6SM VCSH OVC015=



000
FTUS41 KCTP 202333
TAFUNV
TAF
KUNV 202333Z 2100/2124 22006KT P6SM OVC070
     FM210200 22004KT P6SM VCSH OVC040
     FM210700 23003KT 6SM BR VCSH BKN025 OVC035
     FM211700 30007KT P6SM VCSH BKN035=



000
FTUS41 KCTP 202333
TAFBFD
TAF
KBFD 202333Z 2100/2124 19006KT P6SM VCSH SCT025 OVC040
     FM210130 18005KT 5SM -SHRA OVC025
     FM210530 18003KT 2SM -SHRA BR OVC007
     FM210700 18002KT 1SM BR VCSH OVC003
     FM211700 31006KT P6SM VCSH OVC015=



000
FTUS41 KCTP 202333
TAFBFD
TAF
KBFD 202333Z 2100/2124 19006KT P6SM VCSH SCT025 OVC040
     FM210130 18005KT 5SM -SHRA OVC025
     FM210530 18003KT 2SM -SHRA BR OVC007
     FM210700 18002KT 1SM BR VCSH OVC003
     FM211700 31006KT P6SM VCSH OVC015=



000
FTUS41 KCTP 202333
TAFIPT
TAF
KIPT 202333Z 2100/2124 VRB05KT P6SM SCT060 OVC100
     FM210400 VRB03KT P6SM VCSH OVC060
     FM210900 VRB02KT 6SM BR VCSH BKN030 OVC050
     FM211900 29004KT P6SM VCSH BKN035=



000
FTUS41 KCTP 202333
TAFJST
TAF
KJST 202333Z 2100/2124 20007KT P6SM OVC045
     FM210200 21007KT P6SM VCSH SCT025 OVC050
     FM210700 22006KT 5SM BR BKN030 OVC050
     FM211200 26006KT 3SM BR OVC005
     FM211700 29008KT P6SM VCSH OVC015=



000
FTUS41 KCTP 202333
TAFIPT
TAF
KIPT 202333Z 2100/2124 VRB05KT P6SM SCT060 OVC100
     FM210400 VRB03KT P6SM VCSH OVC060
     FM210900 VRB02KT 6SM BR VCSH BKN030 OVC050
     FM211900 29004KT P6SM VCSH BKN035=



000
FTUS41 KCTP 202333
TAFAOO
TAF
KAOO 202333Z 2100/2124 21007KT P6SM OVC060
     FM210200 22004KT P6SM VCSH OVC040
     FM210600 21003KT 6SM BR VCSH BKN030 OVC050
     FM211700 30007KT P6SM VCSH BKN035=



000
FTUS41 KCTP 202333
TAFJST
TAF
KJST 202333Z 2100/2124 20007KT P6SM OVC045
     FM210200 21007KT P6SM VCSH SCT025 OVC050
     FM210700 22006KT 5SM BR BKN030 OVC050
     FM211200 26006KT 3SM BR OVC005
     FM211700 29008KT P6SM VCSH OVC015=



000
FTUS41 KCTP 202333
TAFAOO
TAF
KAOO 202333Z 2100/2124 21007KT P6SM OVC060
     FM210200 22004KT P6SM VCSH OVC040
     FM210600 21003KT 6SM BR VCSH BKN030 OVC050
     FM211700 30007KT P6SM VCSH BKN035=



000
FTUS41 KCTP 202333
TAFUNV
TAF
KUNV 202333Z 2100/2124 22006KT P6SM OVC070
     FM210200 22004KT P6SM VCSH OVC040
     FM210700 23003KT 6SM BR VCSH BKN025 OVC035
     FM211700 30007KT P6SM VCSH BKN035=



000
FTUS41 KCTP 202333
TAFMDT
TAF
KMDT 202333Z 2100/2124 18005KT P6SM VCSH OVC060
     FM211000 VRB03KT P6SM BKN050
     FM211900 30005KT P6SM VCSH BKN040=



000
FTUS41 KCTP 202333
TAFMDT
TAF
KMDT 202333Z 2100/2124 18005KT P6SM VCSH OVC060
     FM211000 VRB03KT P6SM BKN050
     FM211900 30005KT P6SM VCSH BKN040=



000
FTUS41 KCTP 202124 AAB
TAFMDT
TAF AMD
KMDT 202124Z 2021/2118 20006KT P6SM OVC120
     FM202300 18005KT P6SM VCSH OVC060
     FM211000 18005KT P6SM VCSH OVC050=



000
FTUS41 KCTP 202124 AAB
TAFMDT
TAF AMD
KMDT 202124Z 2021/2118 20006KT P6SM OVC120
     FM202300 18005KT P6SM VCSH OVC060
     FM211000 18005KT P6SM VCSH OVC050=



000
FTUS41 KCTP 202122 AAA
TAFIPT
TAF AMD
KIPT 202122Z 2021/2118 VRB05KT P6SM SCT060 OVC100
     FM210300 VRB03KT P6SM VCSH OVC060
     FM210800 00000KT 6SM BR VCSH BKN030 OVC050
     FM211200 26005KT 5SM -SHRA BR OVC015=



000
FTUS41 KCTP 202122 AAA
TAFIPT
TAF AMD
KIPT 202122Z 2021/2118 VRB05KT P6SM SCT060 OVC100
     FM210300 VRB03KT P6SM VCSH OVC060
     FM210800 00000KT 6SM BR VCSH BKN030 OVC050
     FM211200 26005KT 5SM -SHRA BR OVC015=



000
FTUS41 KCTP 202121 AAA
TAFUNV
TAF AMD
KUNV 202121Z 2021/2118 02006KT P6SM VCSH OVC070
     FM210200 22004KT P6SM VCSH OVC040
     FM210700 00000KT 6SM BR VCSH BKN025 OVC035
     FM211100 26005KT 5SM -SHRA BR OVC015=



000
FTUS41 KCTP 202121 AAA
TAFUNV
TAF AMD
KUNV 202121Z 2021/2118 02006KT P6SM VCSH OVC070
     FM210200 22004KT P6SM VCSH OVC040
     FM210700 00000KT 6SM BR VCSH BKN025 OVC035
     FM211100 26005KT 5SM -SHRA BR OVC015=



000
FTUS41 KCTP 202109 AAA
TAFAOO
TAF AMD
KAOO 202109Z 2021/2118 21007KT P6SM OVC060
     FM210200 22004KT P6SM VCSH OVC040
     FM210800 00000KT 6SM BR VCSH BKN030 OVC050
     FM211200 26005KT 5SM -SHRA BR OVC015=



000
FTUS41 KCTP 202109 AAA
TAFAOO
TAF AMD
KAOO 202109Z 2021/2118 21007KT P6SM OVC060
     FM210200 22004KT P6SM VCSH OVC040
     FM210800 00000KT 6SM BR VCSH BKN030 OVC050
     FM211200 26005KT 5SM -SHRA BR OVC015=



000
FTUS41 KCTP 202028 AAA
TAFJST
TAF AMD
KJST 202028Z 2020/2118 20007KT P6SM OVC060
     FM210200 21007KT P6SM VCSH SCT025 OVC050
     FM210700 25006KT 5SM -SHRA BR BKN030 OVC050
     FM211000 26005KT 3SM -DZ BR OVC007=



000
FTUS41 KCTP 202028 AAA
TAFJST
TAF AMD
KJST 202028Z 2020/2118 20007KT P6SM OVC060
     FM210200 21007KT P6SM VCSH SCT025 OVC050
     FM210700 25006KT 5SM -SHRA BR BKN030 OVC050
     FM211000 26005KT 3SM -DZ BR OVC007=



000
FTUS41 KCTP 202013 AAA
TAFBFD
TAF AMD
KBFD 202013Z 2020/2118 20008KT P6SM VCSH SCT025 OVC050
     FM210200 20005KT 5SM -SHRA BKN025 OVC040
     FM210600 18004KT 2SM -SHRA BR SCT007 OVC012
     FM210900 00000KT 2SM -RA BR OVC007
     FM211400 26007KT 5SM -SHRA OVC012=



000
FTUS41 KCTP 202013 AAA
TAFBFD
TAF AMD
KBFD 202013Z 2020/2118 20008KT P6SM VCSH SCT025 OVC050
     FM210200 20005KT 5SM -SHRA BKN025 OVC040
     FM210600 18004KT 2SM -SHRA BR SCT007 OVC012
     FM210900 00000KT 2SM -RA BR OVC007
     FM211400 26007KT 5SM -SHRA OVC012=



000
FTUS41 KCTP 201932 AAA
TAFMDT
TAF AMD
KMDT 201932Z 2020/2118 19008KT P6SM BKN120 OVC220
      TEMPO 2101/2105 5SM -SHRA OVC050
     FM211000 18005KT P6SM VCSH OVC050=



000
FTUS41 KCTP 201738 CCA
TAFMDT
TAF COR
KMDT 201738Z 2018/2118 19010G15KT P6SM BKN120
      TEMPO 2101/2105 5SM -SHRA OVC050
     FM211000 18005KT P6SM VCSH OVC050=



000
FTUS41 KCTP 201738 CCA
TAFMDT
TAF COR
KMDT 201738Z 2018/2118 19010G15KT P6SM BKN120
      TEMPO 2101/2105 5SM -SHRA OVC050
     FM211000 18005KT P6SM VCSH OVC050=



000
FTUS41 KCTP 201737
TAFBFD
TAF
KBFD 201737Z 2018/2118 20008KT P6SM SCT025 OVC050
     FM210100 20005KT 5SM -SHRA BKN025 OVC040
     FM210600 18004KT 2SM -SHRA BR SCT007 OVC012
     FM210900 00000KT 2SM -RA BR OVC007
     FM211400 26007KT 5SM -SHRA OVC012=



000
FTUS41 KCTP 201737
TAFAOO
TAF
KAOO 201737Z 2018/2118 21007KT P6SM BKN120
     FM210300 VRB03KT P6SM VCSH OVC050
     FM210800 00000KT 6SM BR VCSH BKN030 OVC050
     FM211200 26005KT 5SM -SHRA BR OVC015=



000
FTUS41 KCTP 201737
TAFJST
TAF
KJST 201737Z 2018/2118 21006KT P6SM BKN100
     FM210300 22007KT P6SM VCSH OVC050
     FM210700 25006KT 5SM -SHRA BR BKN030 OVC050
     FM211000 26005KT 3SM -DZ BR OVC007=



000
FTUS41 KCTP 201737
TAFIPT
TAF
KIPT 201737Z 2018/2118 14006KT P6SM BKN120
     FM210300 VRB03KT P6SM VCSH OVC050
     FM210800 00000KT 6SM BR VCSH BKN030 OVC050
     FM211200 26005KT 5SM -SHRA BR OVC015=



000
FTUS41 KCTP 201737
TAFUNV
TAF
KUNV 201737Z 2018/2118 22008KT P6SM BKN120
     FM210300 VRB03KT P6SM VCSH OVC050
     FM210700 00000KT 6SM BR VCSH BKN025 OVC035
     FM211100 26005KT 5SM -SHRA BR OVC015=



000
FTUS41 KCTP 201737
TAFMDT
TAF
KMDT 201737Z 2018/2118 19006KT P6SM BKN120
      TEMPO 2101/2105 5SM -SHRA OVC050
     FM211000 18005KT P6SM VCSH OVC050=



    US Dept of Commerce
    National Oceanic and Atmospheric Administration
    National Weather Service
    1325 East West Highway
    Silver Spring, MD 20910
    Page Author: NWS Internet Services Team
Disclaimer
Information Quality
Credits
Glossary
Privacy Policy
Freedom of Information Act (FOIA)
About Us
Career Opportunities